<?xml version="1.0" encoding="UTF-8" standalone="no" ?>
<gpx xmlns="http://www.topografix.com/GPX/1/1" xmlns:xsi="http://www.w3.org/2001/XMLSchema-instance" xsi:schemaLocation="http://www.topografix.com/GPX/1/1 http://www.topografix.com/GPX/1/1/gpx.xsd" version="1.1" creator="VisuGPX - https://www.visugpx.com">
  <metadata>
    <name>20200628-114341-131759-etrex-MNT</name>
    <desc><![CDATA[En VTT au départ du col de la Machine pour avoir un coup d??il  sur la Combe Laval puis les Grand Goulets.]]></desc>
  </metadata>
  <trk>
    <name><![CDATA[20200628-114341-131759-etrex-MNT]]></name>
    <trkseg>
      <trkpt lat="44.9739" lon="5.3346">
        <ele>1024</ele>
        <time>2020-06-28T09:43:41Z</time>
      </trkpt>
      <trkpt lat="44.97389" lon="5.33461">
        <ele>1024</ele>
        <time>2020-06-28T09:43:43Z</time>
      </trkpt>
      <trkpt lat="44.97387" lon="5.33461">
        <ele>1024</ele>
        <time>2020-06-28T09:43:44Z</time>
      </trkpt>
      <trkpt lat="44.97386" lon="5.33461">
        <ele>1025</ele>
        <time>2020-06-28T09:43:45Z</time>
      </trkpt>
      <trkpt lat="44.97384" lon="5.33463">
        <ele>1025</ele>
        <time>2020-06-28T09:43:46Z</time>
      </trkpt>
      <trkpt lat="44.97383" lon="5.33463">
        <ele>1025</ele>
        <time>2020-06-28T09:43:47Z</time>
      </trkpt>
      <trkpt lat="44.97382" lon="5.33463">
        <ele>1025</ele>
        <time>2020-06-28T09:43:48Z</time>
      </trkpt>
      <trkpt lat="44.97367" lon="5.3347">
        <ele>1026</ele>
        <time>2020-06-28T09:43:59Z</time>
      </trkpt>
      <trkpt lat="44.97354" lon="5.33478">
        <ele>1026</ele>
        <time>2020-06-28T09:44:13Z</time>
      </trkpt>
      <trkpt lat="44.97326" lon="5.3349">
        <ele>1026</ele>
        <time>2020-06-28T09:44:25Z</time>
      </trkpt>
      <trkpt lat="44.97313" lon="5.33515">
        <ele>1024</ele>
        <time>2020-06-28T09:44:34Z</time>
      </trkpt>
      <trkpt lat="44.97305" lon="5.33538">
        <ele>1022</ele>
        <time>2020-06-28T09:44:44Z</time>
      </trkpt>
      <trkpt lat="44.97299" lon="5.33558">
        <ele>1020</ele>
        <time>2020-06-28T09:44:56Z</time>
      </trkpt>
      <trkpt lat="44.97295" lon="5.33574">
        <ele>1020</ele>
        <time>2020-06-28T09:45:07Z</time>
      </trkpt>
      <trkpt lat="44.97293" lon="5.33592">
        <ele>1019</ele>
        <time>2020-06-28T09:45:16Z</time>
      </trkpt>
      <trkpt lat="44.97289" lon="5.33611">
        <ele>1018</ele>
        <time>2020-06-28T09:45:24Z</time>
      </trkpt>
      <trkpt lat="44.97286" lon="5.33624">
        <ele>1018</ele>
        <time>2020-06-28T09:45:30Z</time>
      </trkpt>
      <trkpt lat="44.97287" lon="5.33645">
        <ele>1017</ele>
        <time>2020-06-28T09:45:45Z</time>
      </trkpt>
      <trkpt lat="44.97286" lon="5.33662">
        <ele>1017</ele>
        <time>2020-06-28T09:45:59Z</time>
      </trkpt>
      <trkpt lat="44.97281" lon="5.3368">
        <ele>1017</ele>
        <time>2020-06-28T09:46:14Z</time>
      </trkpt>
      <trkpt lat="44.97278" lon="5.33692">
        <ele>1016</ele>
        <time>2020-06-28T09:46:28Z</time>
      </trkpt>
      <trkpt lat="44.97277" lon="5.33707">
        <ele>1015</ele>
        <time>2020-06-28T09:46:45Z</time>
      </trkpt>
      <trkpt lat="44.97275" lon="5.3371">
        <ele>1015</ele>
        <time>2020-06-28T09:47:12Z</time>
      </trkpt>
      <trkpt lat="44.97274" lon="5.33713">
        <ele>1015</ele>
        <time>2020-06-28T09:47:16Z</time>
      </trkpt>
      <trkpt lat="44.97251" lon="5.33723">
        <ele>1017</ele>
        <time>2020-06-28T09:47:28Z</time>
      </trkpt>
      <trkpt lat="44.97205" lon="5.33742">
        <ele>1019</ele>
        <time>2020-06-28T09:47:42Z</time>
      </trkpt>
      <trkpt lat="44.97155" lon="5.33762">
        <ele>1020</ele>
        <time>2020-06-28T09:47:57Z</time>
      </trkpt>
      <trkpt lat="44.97101" lon="5.33784">
        <ele>1022</ele>
        <time>2020-06-28T09:48:12Z</time>
      </trkpt>
      <trkpt lat="44.97062" lon="5.33826">
        <ele>1017</ele>
        <time>2020-06-28T09:48:25Z</time>
      </trkpt>
      <trkpt lat="44.97057" lon="5.33842">
        <ele>1016</ele>
        <time>2020-06-28T09:48:28Z</time>
      </trkpt>
      <trkpt lat="44.97056" lon="5.33847">
        <ele>1015</ele>
        <time>2020-06-28T09:48:29Z</time>
      </trkpt>
      <trkpt lat="44.97056" lon="5.33853">
        <ele>1015</ele>
        <time>2020-06-28T09:48:30Z</time>
      </trkpt>
      <trkpt lat="44.97056" lon="5.33858">
        <ele>1016</ele>
        <time>2020-06-28T09:48:31Z</time>
      </trkpt>
      <trkpt lat="44.97056" lon="5.33863">
        <ele>1017</ele>
        <time>2020-06-28T09:48:32Z</time>
      </trkpt>
      <trkpt lat="44.97071" lon="5.33914">
        <ele>1025</ele>
        <time>2020-06-28T09:48:44Z</time>
      </trkpt>
      <trkpt lat="44.97094" lon="5.33937">
        <ele>1028</ele>
        <time>2020-06-28T09:48:56Z</time>
      </trkpt>
      <trkpt lat="44.97116" lon="5.33951">
        <ele>1029</ele>
        <time>2020-06-28T09:49:07Z</time>
      </trkpt>
      <trkpt lat="44.97146" lon="5.33966">
        <ele>1031</ele>
        <time>2020-06-28T09:49:21Z</time>
      </trkpt>
      <trkpt lat="44.97171" lon="5.33979">
        <ele>1032</ele>
        <time>2020-06-28T09:49:34Z</time>
      </trkpt>
      <trkpt lat="44.97198" lon="5.33996">
        <ele>1035</ele>
        <time>2020-06-28T09:49:48Z</time>
      </trkpt>
      <trkpt lat="44.97231" lon="5.3401">
        <ele>1037</ele>
        <time>2020-06-28T09:50:04Z</time>
      </trkpt>
      <trkpt lat="44.97258" lon="5.34019">
        <ele>1038</ele>
        <time>2020-06-28T09:50:17Z</time>
      </trkpt>
      <trkpt lat="44.97288" lon="5.34031">
        <ele>1040</ele>
        <time>2020-06-28T09:50:32Z</time>
      </trkpt>
      <trkpt lat="44.97316" lon="5.34042">
        <ele>1043</ele>
        <time>2020-06-28T09:50:47Z</time>
      </trkpt>
      <trkpt lat="44.97338" lon="5.34049">
        <ele>1045</ele>
        <time>2020-06-28T09:50:59Z</time>
      </trkpt>
      <trkpt lat="44.97361" lon="5.34059">
        <ele>1046</ele>
        <time>2020-06-28T09:51:10Z</time>
      </trkpt>
      <trkpt lat="44.97391" lon="5.3407">
        <ele>1049</ele>
        <time>2020-06-28T09:51:25Z</time>
      </trkpt>
      <trkpt lat="44.97418" lon="5.34079">
        <ele>1050</ele>
        <time>2020-06-28T09:51:39Z</time>
      </trkpt>
      <trkpt lat="44.97444" lon="5.34091">
        <ele>1053</ele>
        <time>2020-06-28T09:51:52Z</time>
      </trkpt>
      <trkpt lat="44.97462" lon="5.34097">
        <ele>1055</ele>
        <time>2020-06-28T09:52:01Z</time>
      </trkpt>
      <trkpt lat="44.97496" lon="5.34112">
        <ele>1058</ele>
        <time>2020-06-28T09:52:18Z</time>
      </trkpt>
      <trkpt lat="44.97524" lon="5.34126">
        <ele>1061</ele>
        <time>2020-06-28T09:52:33Z</time>
      </trkpt>
      <trkpt lat="44.97552" lon="5.34146">
        <ele>1065</ele>
        <time>2020-06-28T09:52:48Z</time>
      </trkpt>
      <trkpt lat="44.9758" lon="5.34165">
        <ele>1069</ele>
        <time>2020-06-28T09:53:03Z</time>
      </trkpt>
      <trkpt lat="44.97601" lon="5.3418">
        <ele>1070</ele>
        <time>2020-06-28T09:53:15Z</time>
      </trkpt>
      <trkpt lat="44.97627" lon="5.34199">
        <ele>1072</ele>
        <time>2020-06-28T09:53:30Z</time>
      </trkpt>
      <trkpt lat="44.97653" lon="5.34215">
        <ele>1072</ele>
        <time>2020-06-28T09:53:45Z</time>
      </trkpt>
      <trkpt lat="44.97676" lon="5.34229">
        <ele>1074</ele>
        <time>2020-06-28T09:53:59Z</time>
      </trkpt>
      <trkpt lat="44.97689" lon="5.34238">
        <ele>1075</ele>
        <time>2020-06-28T09:54:06Z</time>
      </trkpt>
      <trkpt lat="44.9769" lon="5.34239">
        <ele>1075</ele>
        <time>2020-06-28T09:54:07Z</time>
      </trkpt>
      <trkpt lat="44.97692" lon="5.3424">
        <ele>1075</ele>
        <time>2020-06-28T09:54:08Z</time>
      </trkpt>
      <trkpt lat="44.97717" lon="5.34256">
        <ele>1076</ele>
        <time>2020-06-28T09:54:22Z</time>
      </trkpt>
      <trkpt lat="44.97747" lon="5.34272">
        <ele>1078</ele>
        <time>2020-06-28T09:54:38Z</time>
      </trkpt>
      <trkpt lat="44.97776" lon="5.34284">
        <ele>1080</ele>
        <time>2020-06-28T09:54:53Z</time>
      </trkpt>
      <trkpt lat="44.97802" lon="5.34293">
        <ele>1072</ele>
        <time>2020-06-28T09:55:07Z</time>
      </trkpt>
      <trkpt lat="44.97829" lon="5.34307">
        <ele>1067</ele>
        <time>2020-06-28T09:55:22Z</time>
      </trkpt>
      <trkpt lat="44.97853" lon="5.34327">
        <ele>1044</ele>
        <time>2020-06-28T09:55:35Z</time>
      </trkpt>
      <trkpt lat="44.97873" lon="5.34354">
        <ele>1051</ele>
        <time>2020-06-28T09:55:49Z</time>
      </trkpt>
      <trkpt lat="44.97888" lon="5.34387">
        <ele>1036</ele>
        <time>2020-06-28T09:56:03Z</time>
      </trkpt>
      <trkpt lat="44.97904" lon="5.34426">
        <ele>1033</ele>
        <time>2020-06-28T09:56:18Z</time>
      </trkpt>
      <trkpt lat="44.9793" lon="5.34473">
        <ele>1034</ele>
        <time>2020-06-28T09:56:36Z</time>
      </trkpt>
      <trkpt lat="44.97958" lon="5.34504">
        <ele>1075</ele>
        <time>2020-06-28T09:56:51Z</time>
      </trkpt>
      <trkpt lat="44.97984" lon="5.34525">
        <ele>1077</ele>
        <time>2020-06-28T09:57:03Z</time>
      </trkpt>
      <trkpt lat="44.98018" lon="5.34552">
        <ele>1081</ele>
        <time>2020-06-28T09:57:19Z</time>
      </trkpt>
      <trkpt lat="44.98057" lon="5.34593">
        <ele>1059</ele>
        <time>2020-06-28T09:57:38Z</time>
      </trkpt>
      <trkpt lat="44.98082" lon="5.34661">
        <ele>1083</ele>
        <time>2020-06-28T09:57:55Z</time>
      </trkpt>
      <trkpt lat="44.98101" lon="5.3471">
        <ele>1081</ele>
        <time>2020-06-28T09:58:10Z</time>
      </trkpt>
      <trkpt lat="44.981" lon="5.34707">
        <ele>1080</ele>
        <time>2020-06-28T09:58:20Z</time>
      </trkpt>
      <trkpt lat="44.981" lon="5.34705">
        <ele>1080</ele>
        <time>2020-06-28T09:58:21Z</time>
      </trkpt>
      <trkpt lat="44.98096" lon="5.34685">
        <ele>1079</ele>
        <time>2020-06-28T09:58:32Z</time>
      </trkpt>
      <trkpt lat="44.98097" lon="5.34688">
        <ele>1079</ele>
        <time>2020-06-28T09:59:03Z</time>
      </trkpt>
      <trkpt lat="44.98095" lon="5.34687">
        <ele>1081</ele>
        <time>2020-06-28T09:59:23Z</time>
      </trkpt>
      <trkpt lat="44.98097" lon="5.34688">
        <ele>1078</ele>
        <time>2020-06-28T09:59:51Z</time>
      </trkpt>
      <trkpt lat="44.98096" lon="5.34686">
        <ele>1080</ele>
        <time>2020-06-28T10:00:21Z</time>
      </trkpt>
      <trkpt lat="44.98094" lon="5.34685">
        <ele>1083</ele>
        <time>2020-06-28T10:00:26Z</time>
      </trkpt>
      <trkpt lat="44.98094" lon="5.34697">
        <ele>1086</ele>
        <time>2020-06-28T10:00:32Z</time>
      </trkpt>
      <trkpt lat="44.98094" lon="5.347">
        <ele>1086</ele>
        <time>2020-06-28T10:00:33Z</time>
      </trkpt>
      <trkpt lat="44.98111" lon="5.3475">
        <ele>1089</ele>
        <time>2020-06-28T10:00:47Z</time>
      </trkpt>
      <trkpt lat="44.98138" lon="5.34812">
        <ele>1092</ele>
        <time>2020-06-28T10:01:02Z</time>
      </trkpt>
      <trkpt lat="44.98166" lon="5.34877">
        <ele>1094</ele>
        <time>2020-06-28T10:01:16Z</time>
      </trkpt>
      <trkpt lat="44.98171" lon="5.3489">
        <ele>1094</ele>
        <time>2020-06-28T10:01:18Z</time>
      </trkpt>
      <trkpt lat="44.98201" lon="5.34942">
        <ele>1095</ele>
        <time>2020-06-28T10:01:25Z</time>
      </trkpt>
      <trkpt lat="44.98233" lon="5.34978">
        <ele>1093</ele>
        <time>2020-06-28T10:01:30Z</time>
      </trkpt>
      <trkpt lat="44.98277" lon="5.35004">
        <ele>1089</ele>
        <time>2020-06-28T10:01:35Z</time>
      </trkpt>
      <trkpt lat="44.98334" lon="5.35015">
        <ele>1083</ele>
        <time>2020-06-28T10:01:40Z</time>
      </trkpt>
      <trkpt lat="44.98392" lon="5.35016">
        <ele>1076</ele>
        <time>2020-06-28T10:01:45Z</time>
      </trkpt>
      <trkpt lat="44.98413" lon="5.35021">
        <ele>1075</ele>
        <time>2020-06-28T10:01:47Z</time>
      </trkpt>
      <trkpt lat="44.98422" lon="5.35027">
        <ele>1075</ele>
        <time>2020-06-28T10:01:48Z</time>
      </trkpt>
      <trkpt lat="44.98431" lon="5.35034">
        <ele>1075</ele>
        <time>2020-06-28T10:01:49Z</time>
      </trkpt>
      <trkpt lat="44.98438" lon="5.35043">
        <ele>1074</ele>
        <time>2020-06-28T10:01:50Z</time>
      </trkpt>
      <trkpt lat="44.98444" lon="5.35053">
        <ele>1072</ele>
        <time>2020-06-28T10:01:51Z</time>
      </trkpt>
      <trkpt lat="44.98449" lon="5.35064">
        <ele>1070</ele>
        <time>2020-06-28T10:01:52Z</time>
      </trkpt>
      <trkpt lat="44.98452" lon="5.35076">
        <ele>1070</ele>
        <time>2020-06-28T10:01:53Z</time>
      </trkpt>
      <trkpt lat="44.98453" lon="5.35089">
        <ele>1072</ele>
        <time>2020-06-28T10:01:54Z</time>
      </trkpt>
      <trkpt lat="44.98453" lon="5.35102">
        <ele>1074</ele>
        <time>2020-06-28T10:01:55Z</time>
      </trkpt>
      <trkpt lat="44.98452" lon="5.35115">
        <ele>1077</ele>
        <time>2020-06-28T10:01:56Z</time>
      </trkpt>
      <trkpt lat="44.98448" lon="5.35127">
        <ele>1079</ele>
        <time>2020-06-28T10:01:57Z</time>
      </trkpt>
      <trkpt lat="44.98444" lon="5.35139">
        <ele>1079</ele>
        <time>2020-06-28T10:01:58Z</time>
      </trkpt>
      <trkpt lat="44.98439" lon="5.35151">
        <ele>1078</ele>
        <time>2020-06-28T10:01:59Z</time>
      </trkpt>
      <trkpt lat="44.98433" lon="5.35163">
        <ele>1077</ele>
        <time>2020-06-28T10:02:00Z</time>
      </trkpt>
      <trkpt lat="44.98426" lon="5.35175">
        <ele>1076</ele>
        <time>2020-06-28T10:02:01Z</time>
      </trkpt>
      <trkpt lat="44.98398" lon="5.35225">
        <ele>1069</ele>
        <time>2020-06-28T10:02:05Z</time>
      </trkpt>
      <trkpt lat="44.98391" lon="5.35239">
        <ele>1066</ele>
        <time>2020-06-28T10:02:06Z</time>
      </trkpt>
      <trkpt lat="44.98386" lon="5.35255">
        <ele>1064</ele>
        <time>2020-06-28T10:02:07Z</time>
      </trkpt>
      <trkpt lat="44.98382" lon="5.35272">
        <ele>1061</ele>
        <time>2020-06-28T10:02:08Z</time>
      </trkpt>
      <trkpt lat="44.98381" lon="5.3529">
        <ele>1058</ele>
        <time>2020-06-28T10:02:09Z</time>
      </trkpt>
      <trkpt lat="44.98382" lon="5.35309">
        <ele>1055</ele>
        <time>2020-06-28T10:02:10Z</time>
      </trkpt>
      <trkpt lat="44.98386" lon="5.35326">
        <ele>1052</ele>
        <time>2020-06-28T10:02:11Z</time>
      </trkpt>
      <trkpt lat="44.98393" lon="5.35342">
        <ele>1051</ele>
        <time>2020-06-28T10:02:12Z</time>
      </trkpt>
      <trkpt lat="44.98402" lon="5.35356">
        <ele>1049</ele>
        <time>2020-06-28T10:02:13Z</time>
      </trkpt>
      <trkpt lat="44.98413" lon="5.35366">
        <ele>1048</ele>
        <time>2020-06-28T10:02:14Z</time>
      </trkpt>
      <trkpt lat="44.98425" lon="5.35373">
        <ele>1047</ele>
        <time>2020-06-28T10:02:15Z</time>
      </trkpt>
      <trkpt lat="44.98437" lon="5.3538">
        <ele>1047</ele>
        <time>2020-06-28T10:02:16Z</time>
      </trkpt>
      <trkpt lat="44.98474" lon="5.35403">
        <ele>1046</ele>
        <time>2020-06-28T10:02:19Z</time>
      </trkpt>
      <trkpt lat="44.98523" lon="5.35431">
        <ele>1043</ele>
        <time>2020-06-28T10:02:23Z</time>
      </trkpt>
      <trkpt lat="44.9857" lon="5.35459">
        <ele>1035</ele>
        <time>2020-06-28T10:02:27Z</time>
      </trkpt>
      <trkpt lat="44.98606" lon="5.3548">
        <ele>1032</ele>
        <time>2020-06-28T10:02:30Z</time>
      </trkpt>
      <trkpt lat="44.98641" lon="5.35501">
        <ele>1034</ele>
        <time>2020-06-28T10:02:33Z</time>
      </trkpt>
      <trkpt lat="44.98676" lon="5.35521">
        <ele>1037</ele>
        <time>2020-06-28T10:02:36Z</time>
      </trkpt>
      <trkpt lat="44.98713" lon="5.35543">
        <ele>1036</ele>
        <time>2020-06-28T10:02:39Z</time>
      </trkpt>
      <trkpt lat="44.98724" lon="5.35552">
        <ele>1035</ele>
        <time>2020-06-28T10:02:40Z</time>
      </trkpt>
      <trkpt lat="44.98734" lon="5.35563">
        <ele>1034</ele>
        <time>2020-06-28T10:02:41Z</time>
      </trkpt>
      <trkpt lat="44.98744" lon="5.35577">
        <ele>1032</ele>
        <time>2020-06-28T10:02:42Z</time>
      </trkpt>
      <trkpt lat="44.98751" lon="5.35592">
        <ele>1028</ele>
        <time>2020-06-28T10:02:43Z</time>
      </trkpt>
      <trkpt lat="44.98756" lon="5.35611">
        <ele>1024</ele>
        <time>2020-06-28T10:02:44Z</time>
      </trkpt>
      <trkpt lat="44.98759" lon="5.35629">
        <ele>1021</ele>
        <time>2020-06-28T10:02:45Z</time>
      </trkpt>
      <trkpt lat="44.9876" lon="5.35645">
        <ele>1019</ele>
        <time>2020-06-28T10:02:46Z</time>
      </trkpt>
      <trkpt lat="44.98761" lon="5.35662">
        <ele>1017</ele>
        <time>2020-06-28T10:02:47Z</time>
      </trkpt>
      <trkpt lat="44.9876" lon="5.35763">
        <ele>1010</ele>
        <time>2020-06-28T10:02:53Z</time>
      </trkpt>
      <trkpt lat="44.98771" lon="5.35834">
        <ele>1010</ele>
        <time>2020-06-28T10:02:58Z</time>
      </trkpt>
      <trkpt lat="44.98775" lon="5.35846">
        <ele>1010</ele>
        <time>2020-06-28T10:02:59Z</time>
      </trkpt>
      <trkpt lat="44.98838" lon="5.35957">
        <ele>1010</ele>
        <time>2020-06-28T10:03:11Z</time>
      </trkpt>
      <trkpt lat="44.98902" lon="5.36023">
        <ele>1006</ele>
        <time>2020-06-28T10:03:24Z</time>
      </trkpt>
      <trkpt lat="44.98906" lon="5.36027">
        <ele>1006</ele>
        <time>2020-06-28T10:03:25Z</time>
      </trkpt>
      <trkpt lat="44.98927" lon="5.36048">
        <ele>1005</ele>
        <time>2020-06-28T10:03:31Z</time>
      </trkpt>
      <trkpt lat="44.98956" lon="5.36077">
        <ele>1005</ele>
        <time>2020-06-28T10:03:41Z</time>
      </trkpt>
      <trkpt lat="44.98984" lon="5.36105">
        <ele>1007</ele>
        <time>2020-06-28T10:03:54Z</time>
      </trkpt>
      <trkpt lat="44.9901" lon="5.36129">
        <ele>1011</ele>
        <time>2020-06-28T10:04:10Z</time>
      </trkpt>
      <trkpt lat="44.9903" lon="5.36145">
        <ele>1015</ele>
        <time>2020-06-28T10:04:23Z</time>
      </trkpt>
      <trkpt lat="44.99051" lon="5.3616">
        <ele>1018</ele>
        <time>2020-06-28T10:04:36Z</time>
      </trkpt>
      <trkpt lat="44.99052" lon="5.36162">
        <ele>1019</ele>
        <time>2020-06-28T10:04:37Z</time>
      </trkpt>
      <trkpt lat="44.99054" lon="5.36163">
        <ele>1019</ele>
        <time>2020-06-28T10:04:38Z</time>
      </trkpt>
      <trkpt lat="44.99055" lon="5.36164">
        <ele>1019</ele>
        <time>2020-06-28T10:04:39Z</time>
      </trkpt>
      <trkpt lat="44.99057" lon="5.36164">
        <ele>1019</ele>
        <time>2020-06-28T10:04:40Z</time>
      </trkpt>
      <trkpt lat="44.99059" lon="5.36165">
        <ele>1020</ele>
        <time>2020-06-28T10:04:41Z</time>
      </trkpt>
      <trkpt lat="44.9906" lon="5.36166">
        <ele>1020</ele>
        <time>2020-06-28T10:04:42Z</time>
      </trkpt>
      <trkpt lat="44.99079" lon="5.36176">
        <ele>1023</ele>
        <time>2020-06-28T10:04:55Z</time>
      </trkpt>
      <trkpt lat="44.99091" lon="5.36181">
        <ele>1024</ele>
        <time>2020-06-28T10:05:03Z</time>
      </trkpt>
      <trkpt lat="44.99092" lon="5.36183">
        <ele>1024</ele>
        <time>2020-06-28T10:05:04Z</time>
      </trkpt>
      <trkpt lat="44.99093" lon="5.36184">
        <ele>1024</ele>
        <time>2020-06-28T10:05:05Z</time>
      </trkpt>
      <trkpt lat="44.99095" lon="5.36184">
        <ele>1024</ele>
        <time>2020-06-28T10:05:06Z</time>
      </trkpt>
      <trkpt lat="44.99096" lon="5.36185">
        <ele>1024</ele>
        <time>2020-06-28T10:05:07Z</time>
      </trkpt>
      <trkpt lat="44.99113" lon="5.36191">
        <ele>1025</ele>
        <time>2020-06-28T10:05:19Z</time>
      </trkpt>
      <trkpt lat="44.99139" lon="5.36204">
        <ele>1027</ele>
        <time>2020-06-28T10:05:35Z</time>
      </trkpt>
      <trkpt lat="44.99154" lon="5.3621">
        <ele>1029</ele>
        <time>2020-06-28T10:05:46Z</time>
      </trkpt>
      <trkpt lat="44.99156" lon="5.36211">
        <ele>1030</ele>
        <time>2020-06-28T10:05:47Z</time>
      </trkpt>
      <trkpt lat="44.99158" lon="5.36212">
        <ele>1030</ele>
        <time>2020-06-28T10:05:48Z</time>
      </trkpt>
      <trkpt lat="44.99159" lon="5.36212">
        <ele>1030</ele>
        <time>2020-06-28T10:05:49Z</time>
      </trkpt>
      <trkpt lat="44.99161" lon="5.36213">
        <ele>1030</ele>
        <time>2020-06-28T10:05:50Z</time>
      </trkpt>
      <trkpt lat="44.99162" lon="5.36214">
        <ele>1031</ele>
        <time>2020-06-28T10:05:51Z</time>
      </trkpt>
      <trkpt lat="44.99164" lon="5.36214">
        <ele>1031</ele>
        <time>2020-06-28T10:05:52Z</time>
      </trkpt>
      <trkpt lat="44.99166" lon="5.36215">
        <ele>1031</ele>
        <time>2020-06-28T10:05:53Z</time>
      </trkpt>
      <trkpt lat="44.99192" lon="5.36227">
        <ele>1036</ele>
        <time>2020-06-28T10:06:09Z</time>
      </trkpt>
      <trkpt lat="44.99201" lon="5.36233">
        <ele>1039</ele>
        <time>2020-06-28T10:06:15Z</time>
      </trkpt>
      <trkpt lat="44.99201" lon="5.36236">
        <ele>1039</ele>
        <time>2020-06-28T10:06:16Z</time>
      </trkpt>
      <trkpt lat="44.99202" lon="5.36238">
        <ele>1040</ele>
        <time>2020-06-28T10:06:17Z</time>
      </trkpt>
      <trkpt lat="44.99202" lon="5.3624">
        <ele>1040</ele>
        <time>2020-06-28T10:06:18Z</time>
      </trkpt>
      <trkpt lat="44.99201" lon="5.36241">
        <ele>1040</ele>
        <time>2020-06-28T10:06:19Z</time>
      </trkpt>
      <trkpt lat="44.992" lon="5.36243">
        <ele>1040</ele>
        <time>2020-06-28T10:06:20Z</time>
      </trkpt>
      <trkpt lat="44.992" lon="5.36244">
        <ele>1041</ele>
        <time>2020-06-28T10:06:21Z</time>
      </trkpt>
      <trkpt lat="44.992" lon="5.36246">
        <ele>1041</ele>
        <time>2020-06-28T10:06:22Z</time>
      </trkpt>
      <trkpt lat="44.99199" lon="5.36248">
        <ele>1041</ele>
        <time>2020-06-28T10:06:23Z</time>
      </trkpt>
      <trkpt lat="44.99199" lon="5.3625">
        <ele>1042</ele>
        <time>2020-06-28T10:06:24Z</time>
      </trkpt>
      <trkpt lat="44.99189" lon="5.3627">
        <ele>1043</ele>
        <time>2020-06-28T10:06:37Z</time>
      </trkpt>
      <trkpt lat="44.99174" lon="5.36292">
        <ele>1044</ele>
        <time>2020-06-28T10:06:51Z</time>
      </trkpt>
      <trkpt lat="44.99151" lon="5.36321">
        <ele>1044</ele>
        <time>2020-06-28T10:07:07Z</time>
      </trkpt>
      <trkpt lat="44.99131" lon="5.36344">
        <ele>1044</ele>
        <time>2020-06-28T10:07:23Z</time>
      </trkpt>
      <trkpt lat="44.99131" lon="5.36347">
        <ele>1045</ele>
        <time>2020-06-28T10:07:27Z</time>
      </trkpt>
      <trkpt lat="44.99129" lon="5.36351">
        <ele>1046</ele>
        <time>2020-06-28T10:07:30Z</time>
      </trkpt>
      <trkpt lat="44.99128" lon="5.36352">
        <ele>1045</ele>
        <time>2020-06-28T10:07:31Z</time>
      </trkpt>
      <trkpt lat="44.99127" lon="5.36353">
        <ele>1045</ele>
        <time>2020-06-28T10:07:32Z</time>
      </trkpt>
      <trkpt lat="44.99126" lon="5.36353">
        <ele>1045</ele>
        <time>2020-06-28T10:07:33Z</time>
      </trkpt>
      <trkpt lat="44.99125" lon="5.36353">
        <ele>1045</ele>
        <time>2020-06-28T10:07:34Z</time>
      </trkpt>
      <trkpt lat="44.99114" lon="5.36368">
        <ele>1045</ele>
        <time>2020-06-28T10:07:45Z</time>
      </trkpt>
      <trkpt lat="44.99091" lon="5.3639">
        <ele>1046</ele>
        <time>2020-06-28T10:07:59Z</time>
      </trkpt>
      <trkpt lat="44.99063" lon="5.36413">
        <ele>1047</ele>
        <time>2020-06-28T10:08:15Z</time>
      </trkpt>
      <trkpt lat="44.99036" lon="5.36437">
        <ele>1051</ele>
        <time>2020-06-28T10:08:31Z</time>
      </trkpt>
      <trkpt lat="44.99004" lon="5.36452">
        <ele>1052</ele>
        <time>2020-06-28T10:08:47Z</time>
      </trkpt>
      <trkpt lat="44.98975" lon="5.36465">
        <ele>1052</ele>
        <time>2020-06-28T10:09:01Z</time>
      </trkpt>
      <trkpt lat="44.98947" lon="5.36479">
        <ele>1053</ele>
        <time>2020-06-28T10:09:15Z</time>
      </trkpt>
      <trkpt lat="44.98915" lon="5.36499">
        <ele>1055</ele>
        <time>2020-06-28T10:09:31Z</time>
      </trkpt>
      <trkpt lat="44.98889" lon="5.36535">
        <ele>1058</ele>
        <time>2020-06-28T10:09:47Z</time>
      </trkpt>
      <trkpt lat="44.98877" lon="5.36572">
        <ele>1059</ele>
        <time>2020-06-28T10:10:01Z</time>
      </trkpt>
      <trkpt lat="44.9888" lon="5.36616">
        <ele>1060</ele>
        <time>2020-06-28T10:10:16Z</time>
      </trkpt>
      <trkpt lat="44.98883" lon="5.36651">
        <ele>1062</ele>
        <time>2020-06-28T10:10:29Z</time>
      </trkpt>
      <trkpt lat="44.98873" lon="5.36679">
        <ele>1063</ele>
        <time>2020-06-28T10:10:42Z</time>
      </trkpt>
      <trkpt lat="44.98872" lon="5.3668">
        <ele>1063</ele>
        <time>2020-06-28T10:10:43Z</time>
      </trkpt>
      <trkpt lat="44.9887" lon="5.3668">
        <ele>1063</ele>
        <time>2020-06-28T10:10:44Z</time>
      </trkpt>
      <trkpt lat="44.98841" lon="5.36675">
        <ele>1061</ele>
        <time>2020-06-28T10:10:57Z</time>
      </trkpt>
      <trkpt lat="44.98814" lon="5.36697">
        <ele>1063</ele>
        <time>2020-06-28T10:11:12Z</time>
      </trkpt>
      <trkpt lat="44.98813" lon="5.367">
        <ele>1063</ele>
        <time>2020-06-28T10:11:13Z</time>
      </trkpt>
      <trkpt lat="44.98812" lon="5.36703">
        <ele>1063</ele>
        <time>2020-06-28T10:11:14Z</time>
      </trkpt>
      <trkpt lat="44.9881" lon="5.36706">
        <ele>1064</ele>
        <time>2020-06-28T10:11:15Z</time>
      </trkpt>
      <trkpt lat="44.98809" lon="5.36708">
        <ele>1064</ele>
        <time>2020-06-28T10:11:16Z</time>
      </trkpt>
      <trkpt lat="44.98787" lon="5.36742">
        <ele>1067</ele>
        <time>2020-06-28T10:11:30Z</time>
      </trkpt>
      <trkpt lat="44.98766" lon="5.36763">
        <ele>1069</ele>
        <time>2020-06-28T10:11:43Z</time>
      </trkpt>
      <trkpt lat="44.98747" lon="5.36784">
        <ele>1072</ele>
        <time>2020-06-28T10:11:56Z</time>
      </trkpt>
      <trkpt lat="44.98737" lon="5.36788">
        <ele>1073</ele>
        <time>2020-06-28T10:12:02Z</time>
      </trkpt>
      <trkpt lat="44.98735" lon="5.36787">
        <ele>1073</ele>
        <time>2020-06-28T10:12:03Z</time>
      </trkpt>
      <trkpt lat="44.98733" lon="5.36787">
        <ele>1073</ele>
        <time>2020-06-28T10:12:04Z</time>
      </trkpt>
      <trkpt lat="44.98732" lon="5.36786">
        <ele>1073</ele>
        <time>2020-06-28T10:12:05Z</time>
      </trkpt>
      <trkpt lat="44.9873" lon="5.36786">
        <ele>1073</ele>
        <time>2020-06-28T10:12:06Z</time>
      </trkpt>
      <trkpt lat="44.98729" lon="5.36785">
        <ele>1073</ele>
        <time>2020-06-28T10:12:07Z</time>
      </trkpt>
      <trkpt lat="44.98704" lon="5.36778">
        <ele>1072</ele>
        <time>2020-06-28T10:12:21Z</time>
      </trkpt>
      <trkpt lat="44.987" lon="5.36783">
        <ele>1073</ele>
        <time>2020-06-28T10:12:24Z</time>
      </trkpt>
      <trkpt lat="44.98699" lon="5.36785">
        <ele>1073</ele>
        <time>2020-06-28T10:12:25Z</time>
      </trkpt>
      <trkpt lat="44.98699" lon="5.3679">
        <ele>1074</ele>
        <time>2020-06-28T10:12:27Z</time>
      </trkpt>
      <trkpt lat="44.98699" lon="5.36792">
        <ele>1075</ele>
        <time>2020-06-28T10:12:28Z</time>
      </trkpt>
      <trkpt lat="44.987" lon="5.36794">
        <ele>1075</ele>
        <time>2020-06-28T10:12:29Z</time>
      </trkpt>
      <trkpt lat="44.98701" lon="5.36795">
        <ele>1075</ele>
        <time>2020-06-28T10:12:30Z</time>
      </trkpt>
      <trkpt lat="44.98702" lon="5.36797">
        <ele>1076</ele>
        <time>2020-06-28T10:12:31Z</time>
      </trkpt>
      <trkpt lat="44.98704" lon="5.36798">
        <ele>1076</ele>
        <time>2020-06-28T10:12:32Z</time>
      </trkpt>
      <trkpt lat="44.98705" lon="5.36799">
        <ele>1076</ele>
        <time>2020-06-28T10:12:33Z</time>
      </trkpt>
      <trkpt lat="44.98707" lon="5.36799">
        <ele>1076</ele>
        <time>2020-06-28T10:12:34Z</time>
      </trkpt>
      <trkpt lat="44.98708" lon="5.368">
        <ele>1076</ele>
        <time>2020-06-28T10:12:35Z</time>
      </trkpt>
      <trkpt lat="44.98716" lon="5.36804">
        <ele>1077</ele>
        <time>2020-06-28T10:12:40Z</time>
      </trkpt>
      <trkpt lat="44.98736" lon="5.36816">
        <ele>1079</ele>
        <time>2020-06-28T10:12:55Z</time>
      </trkpt>
      <trkpt lat="44.98755" lon="5.36822">
        <ele>1081</ele>
        <time>2020-06-28T10:13:08Z</time>
      </trkpt>
      <trkpt lat="44.98781" lon="5.36821">
        <ele>1081</ele>
        <time>2020-06-28T10:13:22Z</time>
      </trkpt>
      <trkpt lat="44.988" lon="5.36815">
        <ele>1081</ele>
        <time>2020-06-28T10:13:37Z</time>
      </trkpt>
      <trkpt lat="44.98809" lon="5.36817">
        <ele>1081</ele>
        <time>2020-06-28T10:13:45Z</time>
      </trkpt>
      <trkpt lat="44.98811" lon="5.36817">
        <ele>1082</ele>
        <time>2020-06-28T10:13:46Z</time>
      </trkpt>
      <trkpt lat="44.98812" lon="5.36819">
        <ele>1082</ele>
        <time>2020-06-28T10:13:47Z</time>
      </trkpt>
      <trkpt lat="44.98813" lon="5.3682">
        <ele>1082</ele>
        <time>2020-06-28T10:13:48Z</time>
      </trkpt>
      <trkpt lat="44.98815" lon="5.36821">
        <ele>1082</ele>
        <time>2020-06-28T10:13:49Z</time>
      </trkpt>
      <trkpt lat="44.98819" lon="5.36825">
        <ele>1083</ele>
        <time>2020-06-28T10:13:52Z</time>
      </trkpt>
      <trkpt lat="44.98821" lon="5.36827">
        <ele>1083</ele>
        <time>2020-06-28T10:13:53Z</time>
      </trkpt>
      <trkpt lat="44.98824" lon="5.3683">
        <ele>1084</ele>
        <time>2020-06-28T10:13:55Z</time>
      </trkpt>
      <trkpt lat="44.98825" lon="5.36833">
        <ele>1084</ele>
        <time>2020-06-28T10:13:56Z</time>
      </trkpt>
      <trkpt lat="44.98853" lon="5.36857">
        <ele>1088</ele>
        <time>2020-06-28T10:14:12Z</time>
      </trkpt>
      <trkpt lat="44.98874" lon="5.36873">
        <ele>1090</ele>
        <time>2020-06-28T10:14:26Z</time>
      </trkpt>
      <trkpt lat="44.98896" lon="5.36881">
        <ele>1091</ele>
        <time>2020-06-28T10:14:41Z</time>
      </trkpt>
      <trkpt lat="44.9892" lon="5.36888">
        <ele>1092</ele>
        <time>2020-06-28T10:14:57Z</time>
      </trkpt>
      <trkpt lat="44.98921" lon="5.36888">
        <ele>1092</ele>
        <time>2020-06-28T10:14:58Z</time>
      </trkpt>
      <trkpt lat="44.98935" lon="5.36899">
        <ele>1094</ele>
        <time>2020-06-28T10:15:09Z</time>
      </trkpt>
      <trkpt lat="44.98936" lon="5.369">
        <ele>1094</ele>
        <time>2020-06-28T10:15:10Z</time>
      </trkpt>
      <trkpt lat="44.98937" lon="5.36901">
        <ele>1094</ele>
        <time>2020-06-28T10:15:11Z</time>
      </trkpt>
      <trkpt lat="44.98949" lon="5.36909">
        <ele>1096</ele>
        <time>2020-06-28T10:15:19Z</time>
      </trkpt>
      <trkpt lat="44.98951" lon="5.3691">
        <ele>1096</ele>
        <time>2020-06-28T10:15:20Z</time>
      </trkpt>
      <trkpt lat="44.98954" lon="5.36911">
        <ele>1097</ele>
        <time>2020-06-28T10:15:22Z</time>
      </trkpt>
      <trkpt lat="44.98974" lon="5.36908">
        <ele>1097</ele>
        <time>2020-06-28T10:15:35Z</time>
      </trkpt>
      <trkpt lat="44.98996" lon="5.36906">
        <ele>1099</ele>
        <time>2020-06-28T10:15:50Z</time>
      </trkpt>
      <trkpt lat="44.99016" lon="5.369">
        <ele>1100</ele>
        <time>2020-06-28T10:16:05Z</time>
      </trkpt>
      <trkpt lat="44.9903" lon="5.36897">
        <ele>1101</ele>
        <time>2020-06-28T10:16:16Z</time>
      </trkpt>
      <trkpt lat="44.99054" lon="5.36896">
        <ele>1104</ele>
        <time>2020-06-28T10:16:32Z</time>
      </trkpt>
      <trkpt lat="44.99071" lon="5.36887">
        <ele>1105</ele>
        <time>2020-06-28T10:16:45Z</time>
      </trkpt>
      <trkpt lat="44.99088" lon="5.36883">
        <ele>1106</ele>
        <time>2020-06-28T10:16:58Z</time>
      </trkpt>
      <trkpt lat="44.991" lon="5.36881">
        <ele>1107</ele>
        <time>2020-06-28T10:17:07Z</time>
      </trkpt>
      <trkpt lat="44.99125" lon="5.36889">
        <ele>1110</ele>
        <time>2020-06-28T10:17:20Z</time>
      </trkpt>
      <trkpt lat="44.9915" lon="5.36901">
        <ele>1114</ele>
        <time>2020-06-28T10:17:33Z</time>
      </trkpt>
      <trkpt lat="44.9917" lon="5.36895">
        <ele>1114</ele>
        <time>2020-06-28T10:17:46Z</time>
      </trkpt>
      <trkpt lat="44.9919" lon="5.36882">
        <ele>1115</ele>
        <time>2020-06-28T10:17:58Z</time>
      </trkpt>
      <trkpt lat="44.99221" lon="5.36873">
        <ele>1117</ele>
        <time>2020-06-28T10:18:13Z</time>
      </trkpt>
      <trkpt lat="44.99248" lon="5.36876">
        <ele>1117</ele>
        <time>2020-06-28T10:18:27Z</time>
      </trkpt>
      <trkpt lat="44.99253" lon="5.36878">
        <ele>1117</ele>
        <time>2020-06-28T10:18:29Z</time>
      </trkpt>
      <trkpt lat="44.99256" lon="5.36878">
        <ele>1117</ele>
        <time>2020-06-28T10:18:30Z</time>
      </trkpt>
      <trkpt lat="44.99258" lon="5.36879">
        <ele>1117</ele>
        <time>2020-06-28T10:18:31Z</time>
      </trkpt>
      <trkpt lat="44.99261" lon="5.3688">
        <ele>1117</ele>
        <time>2020-06-28T10:18:32Z</time>
      </trkpt>
      <trkpt lat="44.99264" lon="5.36881">
        <ele>1117</ele>
        <time>2020-06-28T10:18:33Z</time>
      </trkpt>
      <trkpt lat="44.99266" lon="5.36882">
        <ele>1117</ele>
        <time>2020-06-28T10:18:34Z</time>
      </trkpt>
      <trkpt lat="44.99269" lon="5.36883">
        <ele>1117</ele>
        <time>2020-06-28T10:18:35Z</time>
      </trkpt>
      <trkpt lat="44.99272" lon="5.36884">
        <ele>1117</ele>
        <time>2020-06-28T10:18:36Z</time>
      </trkpt>
      <trkpt lat="44.99274" lon="5.36885">
        <ele>1116</ele>
        <time>2020-06-28T10:18:37Z</time>
      </trkpt>
      <trkpt lat="44.99306" lon="5.36902">
        <ele>1117</ele>
        <time>2020-06-28T10:18:51Z</time>
      </trkpt>
      <trkpt lat="44.99331" lon="5.36924">
        <ele>1119</ele>
        <time>2020-06-28T10:19:04Z</time>
      </trkpt>
      <trkpt lat="44.99349" lon="5.36941">
        <ele>1119</ele>
        <time>2020-06-28T10:19:15Z</time>
      </trkpt>
      <trkpt lat="44.9935" lon="5.36943">
        <ele>1119</ele>
        <time>2020-06-28T10:19:16Z</time>
      </trkpt>
      <trkpt lat="44.99352" lon="5.36944">
        <ele>1119</ele>
        <time>2020-06-28T10:19:17Z</time>
      </trkpt>
      <trkpt lat="44.99354" lon="5.36945">
        <ele>1119</ele>
        <time>2020-06-28T10:19:18Z</time>
      </trkpt>
      <trkpt lat="44.99355" lon="5.36947">
        <ele>1119</ele>
        <time>2020-06-28T10:19:19Z</time>
      </trkpt>
      <trkpt lat="44.99378" lon="5.36962">
        <ele>1120</ele>
        <time>2020-06-28T10:19:32Z</time>
      </trkpt>
      <trkpt lat="44.99399" lon="5.36976">
        <ele>1121</ele>
        <time>2020-06-28T10:19:45Z</time>
      </trkpt>
      <trkpt lat="44.99423" lon="5.3699">
        <ele>1121</ele>
        <time>2020-06-28T10:19:59Z</time>
      </trkpt>
      <trkpt lat="44.99446" lon="5.37009">
        <ele>1122</ele>
        <time>2020-06-28T10:20:14Z</time>
      </trkpt>
      <trkpt lat="44.99468" lon="5.37025">
        <ele>1123</ele>
        <time>2020-06-28T10:20:27Z</time>
      </trkpt>
      <trkpt lat="44.99489" lon="5.37046">
        <ele>1127</ele>
        <time>2020-06-28T10:20:40Z</time>
      </trkpt>
      <trkpt lat="44.99513" lon="5.37055">
        <ele>1128</ele>
        <time>2020-06-28T10:20:54Z</time>
      </trkpt>
      <trkpt lat="44.99535" lon="5.37056">
        <ele>1131</ele>
        <time>2020-06-28T10:21:05Z</time>
      </trkpt>
      <trkpt lat="44.99556" lon="5.37054">
        <ele>1132</ele>
        <time>2020-06-28T10:21:16Z</time>
      </trkpt>
      <trkpt lat="44.99569" lon="5.37052">
        <ele>1133</ele>
        <time>2020-06-28T10:21:24Z</time>
      </trkpt>
      <trkpt lat="44.99571" lon="5.37052">
        <ele>1133</ele>
        <time>2020-06-28T10:21:25Z</time>
      </trkpt>
      <trkpt lat="44.99572" lon="5.37051">
        <ele>1133</ele>
        <time>2020-06-28T10:21:26Z</time>
      </trkpt>
      <trkpt lat="44.99574" lon="5.37051">
        <ele>1134</ele>
        <time>2020-06-28T10:21:27Z</time>
      </trkpt>
      <trkpt lat="44.99576" lon="5.3705">
        <ele>1134</ele>
        <time>2020-06-28T10:21:28Z</time>
      </trkpt>
      <trkpt lat="44.99578" lon="5.3705">
        <ele>1134</ele>
        <time>2020-06-28T10:21:29Z</time>
      </trkpt>
      <trkpt lat="44.99579" lon="5.3705">
        <ele>1134</ele>
        <time>2020-06-28T10:21:30Z</time>
      </trkpt>
      <trkpt lat="44.99606" lon="5.37043">
        <ele>1136</ele>
        <time>2020-06-28T10:21:45Z</time>
      </trkpt>
      <trkpt lat="44.99633" lon="5.37036">
        <ele>1137</ele>
        <time>2020-06-28T10:22:00Z</time>
      </trkpt>
      <trkpt lat="44.99662" lon="5.37027">
        <ele>1138</ele>
        <time>2020-06-28T10:22:16Z</time>
      </trkpt>
      <trkpt lat="44.99688" lon="5.37022">
        <ele>1140</ele>
        <time>2020-06-28T10:22:31Z</time>
      </trkpt>
      <trkpt lat="44.99693" lon="5.37024">
        <ele>1141</ele>
        <time>2020-06-28T10:22:34Z</time>
      </trkpt>
      <trkpt lat="44.99696" lon="5.37024">
        <ele>1141</ele>
        <time>2020-06-28T10:22:35Z</time>
      </trkpt>
      <trkpt lat="44.99697" lon="5.37023">
        <ele>1141</ele>
        <time>2020-06-28T10:22:36Z</time>
      </trkpt>
      <trkpt lat="44.997" lon="5.37023">
        <ele>1141</ele>
        <time>2020-06-28T10:22:37Z</time>
      </trkpt>
      <trkpt lat="44.99702" lon="5.37023">
        <ele>1141</ele>
        <time>2020-06-28T10:22:38Z</time>
      </trkpt>
      <trkpt lat="44.9973" lon="5.37024">
        <ele>1144</ele>
        <time>2020-06-28T10:22:53Z</time>
      </trkpt>
      <trkpt lat="44.99754" lon="5.37024">
        <ele>1146</ele>
        <time>2020-06-28T10:23:06Z</time>
      </trkpt>
      <trkpt lat="44.99779" lon="5.37021">
        <ele>1146</ele>
        <time>2020-06-28T10:23:19Z</time>
      </trkpt>
      <trkpt lat="44.99808" lon="5.37022">
        <ele>1149</ele>
        <time>2020-06-28T10:23:33Z</time>
      </trkpt>
      <trkpt lat="44.99838" lon="5.3702">
        <ele>1150</ele>
        <time>2020-06-28T10:23:48Z</time>
      </trkpt>
      <trkpt lat="44.99868" lon="5.37025">
        <ele>1153</ele>
        <time>2020-06-28T10:24:03Z</time>
      </trkpt>
      <trkpt lat="44.99884" lon="5.37035">
        <ele>1158</ele>
        <time>2020-06-28T10:24:12Z</time>
      </trkpt>
      <trkpt lat="44.99885" lon="5.37036">
        <ele>1158</ele>
        <time>2020-06-28T10:24:13Z</time>
      </trkpt>
      <trkpt lat="44.99886" lon="5.37037">
        <ele>1159</ele>
        <time>2020-06-28T10:24:14Z</time>
      </trkpt>
      <trkpt lat="44.99888" lon="5.37038">
        <ele>1159</ele>
        <time>2020-06-28T10:24:15Z</time>
      </trkpt>
      <trkpt lat="44.99889" lon="5.37038">
        <ele>1160</ele>
        <time>2020-06-28T10:24:16Z</time>
      </trkpt>
      <trkpt lat="44.99891" lon="5.37039">
        <ele>1160</ele>
        <time>2020-06-28T10:24:17Z</time>
      </trkpt>
      <trkpt lat="44.99893" lon="5.3704">
        <ele>1161</ele>
        <time>2020-06-28T10:24:18Z</time>
      </trkpt>
      <trkpt lat="44.99894" lon="5.37041">
        <ele>1161</ele>
        <time>2020-06-28T10:24:19Z</time>
      </trkpt>
      <trkpt lat="44.99919" lon="5.37039">
        <ele>1162</ele>
        <time>2020-06-28T10:24:32Z</time>
      </trkpt>
      <trkpt lat="44.99925" lon="5.37038">
        <ele>1162</ele>
        <time>2020-06-28T10:24:35Z</time>
      </trkpt>
      <trkpt lat="44.99927" lon="5.37037">
        <ele>1161</ele>
        <time>2020-06-28T10:24:36Z</time>
      </trkpt>
      <trkpt lat="44.99929" lon="5.37037">
        <ele>1161</ele>
        <time>2020-06-28T10:24:37Z</time>
      </trkpt>
      <trkpt lat="44.99955" lon="5.37034">
        <ele>1162</ele>
        <time>2020-06-28T10:24:51Z</time>
      </trkpt>
      <trkpt lat="44.99977" lon="5.37035">
        <ele>1161</ele>
        <time>2020-06-28T10:25:05Z</time>
      </trkpt>
      <trkpt lat="44.99989" lon="5.37037">
        <ele>1161</ele>
        <time>2020-06-28T10:25:17Z</time>
      </trkpt>
      <trkpt lat="45.00003" lon="5.37038">
        <ele>1161</ele>
        <time>2020-06-28T10:25:35Z</time>
      </trkpt>
      <trkpt lat="45.00024" lon="5.37053">
        <ele>1162</ele>
        <time>2020-06-28T10:25:49Z</time>
      </trkpt>
      <trkpt lat="45.00046" lon="5.37076">
        <ele>1163</ele>
        <time>2020-06-28T10:26:03Z</time>
      </trkpt>
      <trkpt lat="45.00048" lon="5.3708">
        <ele>1163</ele>
        <time>2020-06-28T10:26:05Z</time>
      </trkpt>
      <trkpt lat="45.0005" lon="5.37082">
        <ele>1163</ele>
        <time>2020-06-28T10:26:06Z</time>
      </trkpt>
      <trkpt lat="45.00051" lon="5.37084">
        <ele>1163</ele>
        <time>2020-06-28T10:26:07Z</time>
      </trkpt>
      <trkpt lat="45.00052" lon="5.37086">
        <ele>1164</ele>
        <time>2020-06-28T10:26:08Z</time>
      </trkpt>
      <trkpt lat="45.00054" lon="5.37087">
        <ele>1164</ele>
        <time>2020-06-28T10:26:09Z</time>
      </trkpt>
      <trkpt lat="45.00055" lon="5.37088">
        <ele>1164</ele>
        <time>2020-06-28T10:26:10Z</time>
      </trkpt>
      <trkpt lat="45.00056" lon="5.3709">
        <ele>1164</ele>
        <time>2020-06-28T10:26:11Z</time>
      </trkpt>
      <trkpt lat="45.00057" lon="5.37091">
        <ele>1164</ele>
        <time>2020-06-28T10:26:12Z</time>
      </trkpt>
      <trkpt lat="45.00075" lon="5.37114">
        <ele>1166</ele>
        <time>2020-06-28T10:26:26Z</time>
      </trkpt>
      <trkpt lat="45.00087" lon="5.37129">
        <ele>1167</ele>
        <time>2020-06-28T10:26:37Z</time>
      </trkpt>
      <trkpt lat="45.00104" lon="5.3715">
        <ele>1170</ele>
        <time>2020-06-28T10:26:51Z</time>
      </trkpt>
      <trkpt lat="45.00112" lon="5.3718">
        <ele>1174</ele>
        <time>2020-06-28T10:27:05Z</time>
      </trkpt>
      <trkpt lat="45.00119" lon="5.37214">
        <ele>1179</ele>
        <time>2020-06-28T10:27:21Z</time>
      </trkpt>
      <trkpt lat="45.00136" lon="5.37227">
        <ele>1180</ele>
        <time>2020-06-28T10:27:35Z</time>
      </trkpt>
      <trkpt lat="45.00154" lon="5.37245">
        <ele>1184</ele>
        <time>2020-06-28T10:27:51Z</time>
      </trkpt>
      <trkpt lat="45.00178" lon="5.37246">
        <ele>1186</ele>
        <time>2020-06-28T10:28:05Z</time>
      </trkpt>
      <trkpt lat="45.00198" lon="5.37218">
        <ele>1189</ele>
        <time>2020-06-28T10:28:22Z</time>
      </trkpt>
      <trkpt lat="45.002" lon="5.37187">
        <ele>1189</ele>
        <time>2020-06-28T10:28:37Z</time>
      </trkpt>
      <trkpt lat="45.002" lon="5.37148">
        <ele>1189</ele>
        <time>2020-06-28T10:28:55Z</time>
      </trkpt>
      <trkpt lat="45.00203" lon="5.3712">
        <ele>1190</ele>
        <time>2020-06-28T10:29:09Z</time>
      </trkpt>
      <trkpt lat="45.00206" lon="5.37086">
        <ele>1190</ele>
        <time>2020-06-28T10:29:24Z</time>
      </trkpt>
      <trkpt lat="45.00216" lon="5.37058">
        <ele>1191</ele>
        <time>2020-06-28T10:29:38Z</time>
      </trkpt>
      <trkpt lat="45.00237" lon="5.37033">
        <ele>1193</ele>
        <time>2020-06-28T10:29:55Z</time>
      </trkpt>
      <trkpt lat="45.00256" lon="5.37024">
        <ele>1194</ele>
        <time>2020-06-28T10:30:09Z</time>
      </trkpt>
      <trkpt lat="45.00275" lon="5.37024">
        <ele>1197</ele>
        <time>2020-06-28T10:30:22Z</time>
      </trkpt>
      <trkpt lat="45.00276" lon="5.37024">
        <ele>1197</ele>
        <time>2020-06-28T10:30:23Z</time>
      </trkpt>
      <trkpt lat="45.00294" lon="5.3703">
        <ele>1197</ele>
        <time>2020-06-28T10:30:35Z</time>
      </trkpt>
      <trkpt lat="45.00317" lon="5.37042">
        <ele>1199</ele>
        <time>2020-06-28T10:30:50Z</time>
      </trkpt>
      <trkpt lat="45.00338" lon="5.37056">
        <ele>1201</ele>
        <time>2020-06-28T10:31:04Z</time>
      </trkpt>
      <trkpt lat="45.00344" lon="5.3706">
        <ele>1202</ele>
        <time>2020-06-28T10:31:08Z</time>
      </trkpt>
      <trkpt lat="45.00346" lon="5.37061">
        <ele>1202</ele>
        <time>2020-06-28T10:31:09Z</time>
      </trkpt>
      <trkpt lat="45.00351" lon="5.37067">
        <ele>1203</ele>
        <time>2020-06-28T10:31:13Z</time>
      </trkpt>
      <trkpt lat="45.00352" lon="5.37068">
        <ele>1203</ele>
        <time>2020-06-28T10:31:14Z</time>
      </trkpt>
      <trkpt lat="45.00354" lon="5.37069">
        <ele>1203</ele>
        <time>2020-06-28T10:31:15Z</time>
      </trkpt>
      <trkpt lat="45.00355" lon="5.3707">
        <ele>1203</ele>
        <time>2020-06-28T10:31:16Z</time>
      </trkpt>
      <trkpt lat="45.00356" lon="5.37072">
        <ele>1204</ele>
        <time>2020-06-28T10:31:17Z</time>
      </trkpt>
      <trkpt lat="45.00358" lon="5.37073">
        <ele>1204</ele>
        <time>2020-06-28T10:31:18Z</time>
      </trkpt>
      <trkpt lat="45.0036" lon="5.37074">
        <ele>1204</ele>
        <time>2020-06-28T10:31:20Z</time>
      </trkpt>
      <trkpt lat="45.00361" lon="5.37075">
        <ele>1204</ele>
        <time>2020-06-28T10:31:21Z</time>
      </trkpt>
      <trkpt lat="45.00374" lon="5.37086">
        <ele>1206</ele>
        <time>2020-06-28T10:31:30Z</time>
      </trkpt>
      <trkpt lat="45.00376" lon="5.37086">
        <ele>1206</ele>
        <time>2020-06-28T10:31:31Z</time>
      </trkpt>
      <trkpt lat="45.00378" lon="5.37087">
        <ele>1206</ele>
        <time>2020-06-28T10:31:32Z</time>
      </trkpt>
      <trkpt lat="45.00403" lon="5.37098">
        <ele>1209</ele>
        <time>2020-06-28T10:31:48Z</time>
      </trkpt>
      <trkpt lat="45.00435" lon="5.37108">
        <ele>1211</ele>
        <time>2020-06-28T10:32:03Z</time>
      </trkpt>
      <trkpt lat="45.00457" lon="5.37129">
        <ele>1211</ele>
        <time>2020-06-28T10:32:15Z</time>
      </trkpt>
      <trkpt lat="45.00497" lon="5.37147">
        <ele>1208</ele>
        <time>2020-06-28T10:32:29Z</time>
      </trkpt>
      <trkpt lat="45.00539" lon="5.37136">
        <ele>1207</ele>
        <time>2020-06-28T10:32:39Z</time>
      </trkpt>
      <trkpt lat="45.00543" lon="5.37136">
        <ele>1207</ele>
        <time>2020-06-28T10:32:40Z</time>
      </trkpt>
      <trkpt lat="45.00551" lon="5.37137">
        <ele>1207</ele>
        <time>2020-06-28T10:32:42Z</time>
      </trkpt>
      <trkpt lat="45.00556" lon="5.37138">
        <ele>1206</ele>
        <time>2020-06-28T10:32:43Z</time>
      </trkpt>
      <trkpt lat="45.00559" lon="5.37139">
        <ele>1206</ele>
        <time>2020-06-28T10:32:44Z</time>
      </trkpt>
      <trkpt lat="45.00582" lon="5.37151">
        <ele>1204</ele>
        <time>2020-06-28T10:32:55Z</time>
      </trkpt>
      <trkpt lat="45.00594" lon="5.37158">
        <ele>1204</ele>
        <time>2020-06-28T10:33:11Z</time>
      </trkpt>
      <trkpt lat="45.00622" lon="5.37174">
        <ele>1204</ele>
        <time>2020-06-28T10:33:21Z</time>
      </trkpt>
      <trkpt lat="45.00659" lon="5.37206">
        <ele>1201</ele>
        <time>2020-06-28T10:33:33Z</time>
      </trkpt>
      <trkpt lat="45.00704" lon="5.37242">
        <ele>1200</ele>
        <time>2020-06-28T10:33:49Z</time>
      </trkpt>
      <trkpt lat="45.00724" lon="5.37282">
        <ele>1197</ele>
        <time>2020-06-28T10:34:01Z</time>
      </trkpt>
      <trkpt lat="45.00743" lon="5.37336">
        <ele>1196</ele>
        <time>2020-06-28T10:34:17Z</time>
      </trkpt>
      <trkpt lat="45.00767" lon="5.37398">
        <ele>1196</ele>
        <time>2020-06-28T10:34:33Z</time>
      </trkpt>
      <trkpt lat="45.00787" lon="5.37449">
        <ele>1198</ele>
        <time>2020-06-28T10:34:47Z</time>
      </trkpt>
      <trkpt lat="45.00816" lon="5.3749">
        <ele>1201</ele>
        <time>2020-06-28T10:34:59Z</time>
      </trkpt>
      <trkpt lat="45.00852" lon="5.37539">
        <ele>1200</ele>
        <time>2020-06-28T10:35:13Z</time>
      </trkpt>
      <trkpt lat="45.00886" lon="5.37582">
        <ele>1196</ele>
        <time>2020-06-28T10:35:26Z</time>
      </trkpt>
      <trkpt lat="45.00921" lon="5.37579">
        <ele>1197</ele>
        <time>2020-06-28T10:35:39Z</time>
      </trkpt>
      <trkpt lat="45.00951" lon="5.37557">
        <ele>1197</ele>
        <time>2020-06-28T10:35:51Z</time>
      </trkpt>
      <trkpt lat="45.00971" lon="5.37511">
        <ele>1200</ele>
        <time>2020-06-28T10:36:05Z</time>
      </trkpt>
      <trkpt lat="45.00992" lon="5.37477">
        <ele>1199</ele>
        <time>2020-06-28T10:36:21Z</time>
      </trkpt>
      <trkpt lat="45.01007" lon="5.37451">
        <ele>1198</ele>
        <time>2020-06-28T10:36:35Z</time>
      </trkpt>
      <trkpt lat="45.01024" lon="5.37419">
        <ele>1201</ele>
        <time>2020-06-28T10:36:50Z</time>
      </trkpt>
      <trkpt lat="45.01052" lon="5.37376">
        <ele>1201</ele>
        <time>2020-06-28T10:37:06Z</time>
      </trkpt>
      <trkpt lat="45.01079" lon="5.37346">
        <ele>1198</ele>
        <time>2020-06-28T10:37:19Z</time>
      </trkpt>
      <trkpt lat="45.01083" lon="5.37341">
        <ele>1198</ele>
        <time>2020-06-28T10:37:31Z</time>
      </trkpt>
      <trkpt lat="45.01084" lon="5.37343">
        <ele>1197</ele>
        <time>2020-06-28T10:37:53Z</time>
      </trkpt>
      <trkpt lat="45.01084" lon="5.37342">
        <ele>1197</ele>
        <time>2020-06-28T10:38:05Z</time>
      </trkpt>
      <trkpt lat="45.01083" lon="5.37341">
        <ele>1198</ele>
        <time>2020-06-28T10:38:31Z</time>
      </trkpt>
      <trkpt lat="45.01088" lon="5.37345">
        <ele>1193</ele>
        <time>2020-06-28T10:39:02Z</time>
      </trkpt>
      <trkpt lat="45.01086" lon="5.37345">
        <ele>1194</ele>
        <time>2020-06-28T10:39:18Z</time>
      </trkpt>
      <trkpt lat="45.01086" lon="5.37348">
        <ele>1193</ele>
        <time>2020-06-28T10:39:43Z</time>
      </trkpt>
      <trkpt lat="45.01082" lon="5.37337">
        <ele>1200</ele>
        <time>2020-06-28T10:40:11Z</time>
      </trkpt>
      <trkpt lat="45.01083" lon="5.37345">
        <ele>1196</ele>
        <time>2020-06-28T10:40:46Z</time>
      </trkpt>
      <trkpt lat="45.01079" lon="5.37341">
        <ele>1200</ele>
        <time>2020-06-28T10:41:10Z</time>
      </trkpt>
      <trkpt lat="45.01079" lon="5.37337">
        <ele>1202</ele>
        <time>2020-06-28T10:41:40Z</time>
      </trkpt>
      <trkpt lat="45.01079" lon="5.37338">
        <ele>1202</ele>
        <time>2020-06-28T10:42:13Z</time>
      </trkpt>
      <trkpt lat="45.01082" lon="5.3734">
        <ele>1199</ele>
        <time>2020-06-28T10:42:18Z</time>
      </trkpt>
      <trkpt lat="45.01085" lon="5.37338">
        <ele>1198</ele>
        <time>2020-06-28T10:42:21Z</time>
      </trkpt>
      <trkpt lat="45.01086" lon="5.37337">
        <ele>1197</ele>
        <time>2020-06-28T10:42:22Z</time>
      </trkpt>
      <trkpt lat="45.01087" lon="5.37335">
        <ele>1198</ele>
        <time>2020-06-28T10:42:23Z</time>
      </trkpt>
      <trkpt lat="45.01088" lon="5.37334">
        <ele>1197</ele>
        <time>2020-06-28T10:42:24Z</time>
      </trkpt>
      <trkpt lat="45.01089" lon="5.37333">
        <ele>1197</ele>
        <time>2020-06-28T10:42:25Z</time>
      </trkpt>
      <trkpt lat="45.01091" lon="5.37332">
        <ele>1197</ele>
        <time>2020-06-28T10:42:26Z</time>
      </trkpt>
      <trkpt lat="45.01092" lon="5.37331">
        <ele>1196</ele>
        <time>2020-06-28T10:42:27Z</time>
      </trkpt>
      <trkpt lat="45.01114" lon="5.37295">
        <ele>1200</ele>
        <time>2020-06-28T10:42:43Z</time>
      </trkpt>
      <trkpt lat="45.01131" lon="5.37261">
        <ele>1201</ele>
        <time>2020-06-28T10:42:58Z</time>
      </trkpt>
      <trkpt lat="45.01151" lon="5.37234">
        <ele>1198</ele>
        <time>2020-06-28T10:43:11Z</time>
      </trkpt>
      <trkpt lat="45.01187" lon="5.37208">
        <ele>1184</ele>
        <time>2020-06-28T10:43:25Z</time>
      </trkpt>
      <trkpt lat="45.01208" lon="5.37195">
        <ele>1176</ele>
        <time>2020-06-28T10:43:31Z</time>
      </trkpt>
      <trkpt lat="45.01216" lon="5.37153">
        <ele>1187</ele>
        <time>2020-06-28T10:43:40Z</time>
      </trkpt>
      <trkpt lat="45.01225" lon="5.37116">
        <ele>1193</ele>
        <time>2020-06-28T10:43:51Z</time>
      </trkpt>
      <trkpt lat="45.01239" lon="5.37091">
        <ele>1195</ele>
        <time>2020-06-28T10:44:02Z</time>
      </trkpt>
      <trkpt lat="45.01256" lon="5.37077">
        <ele>1190</ele>
        <time>2020-06-28T10:44:13Z</time>
      </trkpt>
      <trkpt lat="45.01302" lon="5.37048">
        <ele>1188</ele>
        <time>2020-06-28T10:44:27Z</time>
      </trkpt>
      <trkpt lat="45.01346" lon="5.37007">
        <ele>1185</ele>
        <time>2020-06-28T10:44:40Z</time>
      </trkpt>
      <trkpt lat="45.01377" lon="5.36983">
        <ele>1187</ele>
        <time>2020-06-28T10:44:52Z</time>
      </trkpt>
      <trkpt lat="45.01421" lon="5.36973">
        <ele>1177</ele>
        <time>2020-06-28T10:45:05Z</time>
      </trkpt>
      <trkpt lat="45.0146" lon="5.3695">
        <ele>1179</ele>
        <time>2020-06-28T10:45:16Z</time>
      </trkpt>
      <trkpt lat="45.01487" lon="5.36925">
        <ele>1182</ele>
        <time>2020-06-28T10:45:24Z</time>
      </trkpt>
      <trkpt lat="45.01491" lon="5.36922">
        <ele>1182</ele>
        <time>2020-06-28T10:45:25Z</time>
      </trkpt>
      <trkpt lat="45.01495" lon="5.36919">
        <ele>1183</ele>
        <time>2020-06-28T10:45:26Z</time>
      </trkpt>
      <trkpt lat="45.01521" lon="5.36904">
        <ele>1183</ele>
        <time>2020-06-28T10:45:32Z</time>
      </trkpt>
      <trkpt lat="45.01526" lon="5.36902">
        <ele>1182</ele>
        <time>2020-06-28T10:45:33Z</time>
      </trkpt>
      <trkpt lat="45.01542" lon="5.36899">
        <ele>1180</ele>
        <time>2020-06-28T10:45:36Z</time>
      </trkpt>
      <trkpt lat="45.01565" lon="5.36897">
        <ele>1172</ele>
        <time>2020-06-28T10:45:41Z</time>
      </trkpt>
      <trkpt lat="45.01569" lon="5.36896">
        <ele>1172</ele>
        <time>2020-06-28T10:45:42Z</time>
      </trkpt>
      <trkpt lat="45.01572" lon="5.36893">
        <ele>1173</ele>
        <time>2020-06-28T10:45:43Z</time>
      </trkpt>
      <trkpt lat="45.01593" lon="5.36876">
        <ele>1177</ele>
        <time>2020-06-28T10:45:48Z</time>
      </trkpt>
      <trkpt lat="45.01613" lon="5.36864">
        <ele>1174</ele>
        <time>2020-06-28T10:45:53Z</time>
      </trkpt>
      <trkpt lat="45.01617" lon="5.36862">
        <ele>1172</ele>
        <time>2020-06-28T10:45:54Z</time>
      </trkpt>
      <trkpt lat="45.01664" lon="5.3685">
        <ele>1162</ele>
        <time>2020-06-28T10:46:04Z</time>
      </trkpt>
      <trkpt lat="45.0168" lon="5.36847">
        <ele>1159</ele>
        <time>2020-06-28T10:46:13Z</time>
      </trkpt>
      <trkpt lat="45.01686" lon="5.36849">
        <ele>1156</ele>
        <time>2020-06-28T10:46:26Z</time>
      </trkpt>
      <trkpt lat="45.01687" lon="5.36847">
        <ele>1158</ele>
        <time>2020-06-28T10:46:44Z</time>
      </trkpt>
      <trkpt lat="45.01683" lon="5.3685">
        <ele>1156</ele>
        <time>2020-06-28T10:47:16Z</time>
      </trkpt>
      <trkpt lat="45.01683" lon="5.36849">
        <ele>1157</ele>
        <time>2020-06-28T10:47:36Z</time>
      </trkpt>
      <trkpt lat="45.01687" lon="5.36844">
        <ele>1161</ele>
        <time>2020-06-28T10:48:04Z</time>
      </trkpt>
      <trkpt lat="45.01684" lon="5.36844">
        <ele>1161</ele>
        <time>2020-06-28T10:48:22Z</time>
      </trkpt>
      <trkpt lat="45.01684" lon="5.36843">
        <ele>1163</ele>
        <time>2020-06-28T10:48:45Z</time>
      </trkpt>
      <trkpt lat="45.01688" lon="5.3684">
        <ele>1165</ele>
        <time>2020-06-28T10:49:15Z</time>
      </trkpt>
      <trkpt lat="45.01686" lon="5.36839">
        <ele>1166</ele>
        <time>2020-06-28T10:49:43Z</time>
      </trkpt>
      <trkpt lat="45.01687" lon="5.36841">
        <ele>1164</ele>
        <time>2020-06-28T10:50:02Z</time>
      </trkpt>
      <trkpt lat="45.01688" lon="5.36844">
        <ele>1160</ele>
        <time>2020-06-28T10:50:27Z</time>
      </trkpt>
      <trkpt lat="45.01688" lon="5.36842">
        <ele>1162</ele>
        <time>2020-06-28T10:50:51Z</time>
      </trkpt>
      <trkpt lat="45.01685" lon="5.36848">
        <ele>1157</ele>
        <time>2020-06-28T10:51:09Z</time>
      </trkpt>
      <trkpt lat="45.01687" lon="5.36851">
        <ele>1154</ele>
        <time>2020-06-28T10:51:36Z</time>
      </trkpt>
      <trkpt lat="45.01692" lon="5.36846">
        <ele>1157</ele>
        <time>2020-06-28T10:51:48Z</time>
      </trkpt>
      <trkpt lat="45.01706" lon="5.36839">
        <ele>1162</ele>
        <time>2020-06-28T10:51:54Z</time>
      </trkpt>
      <trkpt lat="45.01708" lon="5.36804">
        <ele>1174</ele>
        <time>2020-06-28T10:52:05Z</time>
      </trkpt>
      <trkpt lat="45.01682" lon="5.36776">
        <ele>1181</ele>
        <time>2020-06-28T10:52:16Z</time>
      </trkpt>
      <trkpt lat="45.01675" lon="5.36769">
        <ele>1182</ele>
        <time>2020-06-28T10:52:18Z</time>
      </trkpt>
      <trkpt lat="45.01672" lon="5.36765">
        <ele>1183</ele>
        <time>2020-06-28T10:52:19Z</time>
      </trkpt>
      <trkpt lat="45.01668" lon="5.36761">
        <ele>1182</ele>
        <time>2020-06-28T10:52:20Z</time>
      </trkpt>
      <trkpt lat="45.01661" lon="5.36751">
        <ele>1180</ele>
        <time>2020-06-28T10:52:22Z</time>
      </trkpt>
      <trkpt lat="45.01657" lon="5.36745">
        <ele>1178</ele>
        <time>2020-06-28T10:52:23Z</time>
      </trkpt>
      <trkpt lat="45.01614" lon="5.36699">
        <ele>1170</ele>
        <time>2020-06-28T10:52:33Z</time>
      </trkpt>
      <trkpt lat="45.01592" lon="5.36683">
        <ele>1167</ele>
        <time>2020-06-28T10:52:37Z</time>
      </trkpt>
      <trkpt lat="45.01585" lon="5.36678">
        <ele>1166</ele>
        <time>2020-06-28T10:52:38Z</time>
      </trkpt>
      <trkpt lat="45.01551" lon="5.36662">
        <ele>1161</ele>
        <time>2020-06-28T10:52:42Z</time>
      </trkpt>
      <trkpt lat="45.01492" lon="5.36636">
        <ele>1157</ele>
        <time>2020-06-28T10:52:50Z</time>
      </trkpt>
      <trkpt lat="45.01444" lon="5.36607">
        <ele>1153</ele>
        <time>2020-06-28T10:52:57Z</time>
      </trkpt>
      <trkpt lat="45.01398" lon="5.36579">
        <ele>1150</ele>
        <time>2020-06-28T10:53:04Z</time>
      </trkpt>
      <trkpt lat="45.01338" lon="5.36529">
        <ele>1144</ele>
        <time>2020-06-28T10:53:12Z</time>
      </trkpt>
      <trkpt lat="45.01265" lon="5.36476">
        <ele>1140</ele>
        <time>2020-06-28T10:53:21Z</time>
      </trkpt>
      <trkpt lat="45.01256" lon="5.36472">
        <ele>1139</ele>
        <time>2020-06-28T10:53:22Z</time>
      </trkpt>
      <trkpt lat="45.01249" lon="5.36471">
        <ele>1139</ele>
        <time>2020-06-28T10:53:23Z</time>
      </trkpt>
      <trkpt lat="45.01242" lon="5.36472">
        <ele>1140</ele>
        <time>2020-06-28T10:53:24Z</time>
      </trkpt>
      <trkpt lat="45.01234" lon="5.36474">
        <ele>1140</ele>
        <time>2020-06-28T10:53:25Z</time>
      </trkpt>
      <trkpt lat="45.01227" lon="5.36478">
        <ele>1140</ele>
        <time>2020-06-28T10:53:26Z</time>
      </trkpt>
      <trkpt lat="45.01219" lon="5.36483">
        <ele>1140</ele>
        <time>2020-06-28T10:53:27Z</time>
      </trkpt>
      <trkpt lat="45.01172" lon="5.36515">
        <ele>1139</ele>
        <time>2020-06-28T10:53:33Z</time>
      </trkpt>
      <trkpt lat="45.01118" lon="5.36547">
        <ele>1132</ele>
        <time>2020-06-28T10:53:40Z</time>
      </trkpt>
      <trkpt lat="45.01079" lon="5.36576">
        <ele>1129</ele>
        <time>2020-06-28T10:53:45Z</time>
      </trkpt>
      <trkpt lat="45.01048" lon="5.36592">
        <ele>1128</ele>
        <time>2020-06-28T10:53:49Z</time>
      </trkpt>
      <trkpt lat="45.01042" lon="5.36593">
        <ele>1129</ele>
        <time>2020-06-28T10:53:50Z</time>
      </trkpt>
      <trkpt lat="45.01036" lon="5.36591">
        <ele>1128</ele>
        <time>2020-06-28T10:53:51Z</time>
      </trkpt>
      <trkpt lat="45.01025" lon="5.36585">
        <ele>1127</ele>
        <time>2020-06-28T10:53:53Z</time>
      </trkpt>
      <trkpt lat="45.01006" lon="5.36563">
        <ele>1122</ele>
        <time>2020-06-28T10:53:57Z</time>
      </trkpt>
      <trkpt lat="45.01001" lon="5.36559">
        <ele>1122</ele>
        <time>2020-06-28T10:53:58Z</time>
      </trkpt>
      <trkpt lat="45.00988" lon="5.36552">
        <ele>1122</ele>
        <time>2020-06-28T10:54:00Z</time>
      </trkpt>
      <trkpt lat="45.00924" lon="5.3652">
        <ele>1116</ele>
        <time>2020-06-28T10:54:10Z</time>
      </trkpt>
      <trkpt lat="45.00899" lon="5.36507">
        <ele>1114</ele>
        <time>2020-06-28T10:54:14Z</time>
      </trkpt>
      <trkpt lat="45.00855" lon="5.36492">
        <ele>1113</ele>
        <time>2020-06-28T10:54:21Z</time>
      </trkpt>
      <trkpt lat="45.00825" lon="5.36482">
        <ele>1113</ele>
        <time>2020-06-28T10:54:26Z</time>
      </trkpt>
      <trkpt lat="45.0082" lon="5.36479">
        <ele>1112</ele>
        <time>2020-06-28T10:54:27Z</time>
      </trkpt>
      <trkpt lat="45.00814" lon="5.36474">
        <ele>1111</ele>
        <time>2020-06-28T10:54:28Z</time>
      </trkpt>
      <trkpt lat="45.00789" lon="5.36448">
        <ele>1107</ele>
        <time>2020-06-28T10:54:33Z</time>
      </trkpt>
      <trkpt lat="45.00785" lon="5.36442">
        <ele>1105</ele>
        <time>2020-06-28T10:54:34Z</time>
      </trkpt>
      <trkpt lat="45.0078" lon="5.36434">
        <ele>1104</ele>
        <time>2020-06-28T10:54:35Z</time>
      </trkpt>
      <trkpt lat="45.00776" lon="5.36427">
        <ele>1103</ele>
        <time>2020-06-28T10:54:36Z</time>
      </trkpt>
      <trkpt lat="45.00752" lon="5.36393">
        <ele>1097</ele>
        <time>2020-06-28T10:54:41Z</time>
      </trkpt>
      <trkpt lat="45.00747" lon="5.36389">
        <ele>1096</ele>
        <time>2020-06-28T10:54:42Z</time>
      </trkpt>
      <trkpt lat="45.00742" lon="5.36385">
        <ele>1095</ele>
        <time>2020-06-28T10:54:43Z</time>
      </trkpt>
      <trkpt lat="45.00731" lon="5.36377">
        <ele>1095</ele>
        <time>2020-06-28T10:54:45Z</time>
      </trkpt>
      <trkpt lat="45.00698" lon="5.36348">
        <ele>1090</ele>
        <time>2020-06-28T10:54:50Z</time>
      </trkpt>
      <trkpt lat="45.00662" lon="5.36312">
        <ele>1088</ele>
        <time>2020-06-28T10:54:56Z</time>
      </trkpt>
      <trkpt lat="45.00642" lon="5.36294">
        <ele>1086</ele>
        <time>2020-06-28T10:54:59Z</time>
      </trkpt>
      <trkpt lat="45.00636" lon="5.36291">
        <ele>1086</ele>
        <time>2020-06-28T10:55:00Z</time>
      </trkpt>
      <trkpt lat="45.00629" lon="5.36287">
        <ele>1086</ele>
        <time>2020-06-28T10:55:01Z</time>
      </trkpt>
      <trkpt lat="45.00623" lon="5.36285">
        <ele>1086</ele>
        <time>2020-06-28T10:55:02Z</time>
      </trkpt>
      <trkpt lat="45.00616" lon="5.36285">
        <ele>1087</ele>
        <time>2020-06-28T10:55:03Z</time>
      </trkpt>
      <trkpt lat="45.00611" lon="5.36287">
        <ele>1087</ele>
        <time>2020-06-28T10:55:04Z</time>
      </trkpt>
      <trkpt lat="45.00606" lon="5.36289">
        <ele>1087</ele>
        <time>2020-06-28T10:55:05Z</time>
      </trkpt>
      <trkpt lat="45.00602" lon="5.3629">
        <ele>1087</ele>
        <time>2020-06-28T10:55:06Z</time>
      </trkpt>
      <trkpt lat="45.00599" lon="5.36289">
        <ele>1087</ele>
        <time>2020-06-28T10:55:07Z</time>
      </trkpt>
      <trkpt lat="45.00596" lon="5.36287">
        <ele>1086</ele>
        <time>2020-06-28T10:55:08Z</time>
      </trkpt>
      <trkpt lat="45.00595" lon="5.36284">
        <ele>1085</ele>
        <time>2020-06-28T10:55:09Z</time>
      </trkpt>
      <trkpt lat="45.00594" lon="5.36283">
        <ele>1085</ele>
        <time>2020-06-28T10:55:10Z</time>
      </trkpt>
      <trkpt lat="45.00595" lon="5.3628">
        <ele>1084</ele>
        <time>2020-06-28T10:55:11Z</time>
      </trkpt>
      <trkpt lat="45.00597" lon="5.36277">
        <ele>1084</ele>
        <time>2020-06-28T10:55:12Z</time>
      </trkpt>
      <trkpt lat="45.00599" lon="5.36275">
        <ele>1084</ele>
        <time>2020-06-28T10:55:13Z</time>
      </trkpt>
      <trkpt lat="45.00625" lon="5.36261">
        <ele>1081</ele>
        <time>2020-06-28T10:55:23Z</time>
      </trkpt>
      <trkpt lat="45.0063" lon="5.36261">
        <ele>1081</ele>
        <time>2020-06-28T10:55:36Z</time>
      </trkpt>
      <trkpt lat="45.00632" lon="5.36261">
        <ele>1081</ele>
        <time>2020-06-28T10:55:37Z</time>
      </trkpt>
      <trkpt lat="45.00634" lon="5.36261">
        <ele>1081</ele>
        <time>2020-06-28T10:55:38Z</time>
      </trkpt>
      <trkpt lat="45.00635" lon="5.3626">
        <ele>1080</ele>
        <time>2020-06-28T10:55:39Z</time>
      </trkpt>
      <trkpt lat="45.00637" lon="5.36259">
        <ele>1080</ele>
        <time>2020-06-28T10:55:40Z</time>
      </trkpt>
      <trkpt lat="45.00663" lon="5.36257">
        <ele>1077</ele>
        <time>2020-06-28T10:55:48Z</time>
      </trkpt>
      <trkpt lat="45.00681" lon="5.36262">
        <ele>1075</ele>
        <time>2020-06-28T10:55:53Z</time>
      </trkpt>
      <trkpt lat="45.00684" lon="5.3626">
        <ele>1075</ele>
        <time>2020-06-28T10:55:54Z</time>
      </trkpt>
      <trkpt lat="45.00685" lon="5.36257">
        <ele>1074</ele>
        <time>2020-06-28T10:55:55Z</time>
      </trkpt>
      <trkpt lat="45.00686" lon="5.36255">
        <ele>1074</ele>
        <time>2020-06-28T10:55:56Z</time>
      </trkpt>
      <trkpt lat="45.00685" lon="5.36252">
        <ele>1073</ele>
        <time>2020-06-28T10:55:57Z</time>
      </trkpt>
      <trkpt lat="45.00684" lon="5.36249">
        <ele>1073</ele>
        <time>2020-06-28T10:55:58Z</time>
      </trkpt>
      <trkpt lat="45.00682" lon="5.36246">
        <ele>1073</ele>
        <time>2020-06-28T10:55:59Z</time>
      </trkpt>
      <trkpt lat="45.00679" lon="5.36243">
        <ele>1073</ele>
        <time>2020-06-28T10:56:00Z</time>
      </trkpt>
      <trkpt lat="45.00629" lon="5.36212">
        <ele>1074</ele>
        <time>2020-06-28T10:56:14Z</time>
      </trkpt>
      <trkpt lat="45.00616" lon="5.36208">
        <ele>1074</ele>
        <time>2020-06-28T10:56:17Z</time>
      </trkpt>
      <trkpt lat="45.00603" lon="5.36206">
        <ele>1073</ele>
        <time>2020-06-28T10:56:20Z</time>
      </trkpt>
      <trkpt lat="45.00598" lon="5.36207">
        <ele>1073</ele>
        <time>2020-06-28T10:56:21Z</time>
      </trkpt>
      <trkpt lat="45.00593" lon="5.36208">
        <ele>1073</ele>
        <time>2020-06-28T10:56:22Z</time>
      </trkpt>
      <trkpt lat="45.00589" lon="5.3621">
        <ele>1072</ele>
        <time>2020-06-28T10:56:23Z</time>
      </trkpt>
      <trkpt lat="45.00584" lon="5.36213">
        <ele>1072</ele>
        <time>2020-06-28T10:56:24Z</time>
      </trkpt>
      <trkpt lat="45.00579" lon="5.36216">
        <ele>1073</ele>
        <time>2020-06-28T10:56:25Z</time>
      </trkpt>
      <trkpt lat="45.00574" lon="5.36221">
        <ele>1073</ele>
        <time>2020-06-28T10:56:26Z</time>
      </trkpt>
      <trkpt lat="45.00569" lon="5.36225">
        <ele>1073</ele>
        <time>2020-06-28T10:56:27Z</time>
      </trkpt>
      <trkpt lat="45.00564" lon="5.36228">
        <ele>1072</ele>
        <time>2020-06-28T10:56:28Z</time>
      </trkpt>
      <trkpt lat="45.00558" lon="5.36229">
        <ele>1071</ele>
        <time>2020-06-28T10:56:29Z</time>
      </trkpt>
      <trkpt lat="45.00553" lon="5.36229">
        <ele>1070</ele>
        <time>2020-06-28T10:56:30Z</time>
      </trkpt>
      <trkpt lat="45.0055" lon="5.36228">
        <ele>1069</ele>
        <time>2020-06-28T10:56:31Z</time>
      </trkpt>
      <trkpt lat="45.00549" lon="5.36227">
        <ele>1068</ele>
        <time>2020-06-28T10:56:32Z</time>
      </trkpt>
      <trkpt lat="45.00539" lon="5.36219">
        <ele>1064</ele>
        <time>2020-06-28T10:56:43Z</time>
      </trkpt>
      <trkpt lat="45.0054" lon="5.36222">
        <ele>1065</ele>
        <time>2020-06-28T10:57:02Z</time>
      </trkpt>
      <trkpt lat="45.00539" lon="5.36223">
        <ele>1065</ele>
        <time>2020-06-28T10:57:03Z</time>
      </trkpt>
      <trkpt lat="45.00537" lon="5.36225">
        <ele>1065</ele>
        <time>2020-06-28T10:57:04Z</time>
      </trkpt>
      <trkpt lat="45.00536" lon="5.36226">
        <ele>1065</ele>
        <time>2020-06-28T10:57:05Z</time>
      </trkpt>
      <trkpt lat="45.00534" lon="5.36228">
        <ele>1065</ele>
        <time>2020-06-28T10:57:06Z</time>
      </trkpt>
      <trkpt lat="45.00532" lon="5.36231">
        <ele>1065</ele>
        <time>2020-06-28T10:57:07Z</time>
      </trkpt>
      <trkpt lat="45.0053" lon="5.36233">
        <ele>1064</ele>
        <time>2020-06-28T10:57:08Z</time>
      </trkpt>
      <trkpt lat="45.00528" lon="5.36236">
        <ele>1064</ele>
        <time>2020-06-28T10:57:09Z</time>
      </trkpt>
      <trkpt lat="45.00525" lon="5.36239">
        <ele>1065</ele>
        <time>2020-06-28T10:57:10Z</time>
      </trkpt>
      <trkpt lat="45.00522" lon="5.36242">
        <ele>1064</ele>
        <time>2020-06-28T10:57:11Z</time>
      </trkpt>
      <trkpt lat="45.00518" lon="5.36246">
        <ele>1064</ele>
        <time>2020-06-28T10:57:12Z</time>
      </trkpt>
      <trkpt lat="45.00488" lon="5.36268">
        <ele>1062</ele>
        <time>2020-06-28T10:57:18Z</time>
      </trkpt>
      <trkpt lat="45.0048" lon="5.36271">
        <ele>1061</ele>
        <time>2020-06-28T10:57:19Z</time>
      </trkpt>
      <trkpt lat="45.00474" lon="5.36273">
        <ele>1060</ele>
        <time>2020-06-28T10:57:20Z</time>
      </trkpt>
      <trkpt lat="45.00466" lon="5.36275">
        <ele>1059</ele>
        <time>2020-06-28T10:57:21Z</time>
      </trkpt>
      <trkpt lat="45.0043" lon="5.36274">
        <ele>1052</ele>
        <time>2020-06-28T10:57:25Z</time>
      </trkpt>
      <trkpt lat="45.00391" lon="5.36263">
        <ele>1049</ele>
        <time>2020-06-28T10:57:29Z</time>
      </trkpt>
      <trkpt lat="45.00381" lon="5.3626">
        <ele>1048</ele>
        <time>2020-06-28T10:57:30Z</time>
      </trkpt>
      <trkpt lat="45.0032" lon="5.36244">
        <ele>1047</ele>
        <time>2020-06-28T10:57:36Z</time>
      </trkpt>
      <trkpt lat="45.00238" lon="5.3622">
        <ele>1047</ele>
        <time>2020-06-28T10:57:45Z</time>
      </trkpt>
      <trkpt lat="45.00126" lon="5.3619">
        <ele>1042</ele>
        <time>2020-06-28T10:58:00Z</time>
      </trkpt>
      <trkpt lat="45.00103" lon="5.3619">
        <ele>1040</ele>
        <time>2020-06-28T10:58:03Z</time>
      </trkpt>
      <trkpt lat="45.00075" lon="5.36199">
        <ele>1040</ele>
        <time>2020-06-28T10:58:07Z</time>
      </trkpt>
      <trkpt lat="45.00068" lon="5.36203">
        <ele>1040</ele>
        <time>2020-06-28T10:58:08Z</time>
      </trkpt>
      <trkpt lat="44.99976" lon="5.36279">
        <ele>1038</ele>
        <time>2020-06-28T10:58:24Z</time>
      </trkpt>
      <trkpt lat="44.99887" lon="5.36355">
        <ele>1039</ele>
        <time>2020-06-28T10:58:39Z</time>
      </trkpt>
      <trkpt lat="44.99847" lon="5.36391">
        <ele>1036</ele>
        <time>2020-06-28T10:58:46Z</time>
      </trkpt>
      <trkpt lat="44.99843" lon="5.36398">
        <ele>1037</ele>
        <time>2020-06-28T10:58:47Z</time>
      </trkpt>
      <trkpt lat="44.99838" lon="5.36404">
        <ele>1037</ele>
        <time>2020-06-28T10:58:48Z</time>
      </trkpt>
      <trkpt lat="44.99827" lon="5.36423">
        <ele>1035</ele>
        <time>2020-06-28T10:58:51Z</time>
      </trkpt>
      <trkpt lat="44.99824" lon="5.3643">
        <ele>1035</ele>
        <time>2020-06-28T10:58:52Z</time>
      </trkpt>
      <trkpt lat="44.9979" lon="5.36512">
        <ele>1037</ele>
        <time>2020-06-28T10:59:05Z</time>
      </trkpt>
      <trkpt lat="44.99772" lon="5.36544">
        <ele>1039</ele>
        <time>2020-06-28T10:59:10Z</time>
      </trkpt>
      <trkpt lat="44.99767" lon="5.3655">
        <ele>1039</ele>
        <time>2020-06-28T10:59:11Z</time>
      </trkpt>
      <trkpt lat="44.99757" lon="5.3656">
        <ele>1038</ele>
        <time>2020-06-28T10:59:13Z</time>
      </trkpt>
      <trkpt lat="44.99751" lon="5.36563">
        <ele>1037</ele>
        <time>2020-06-28T10:59:14Z</time>
      </trkpt>
      <trkpt lat="44.99746" lon="5.36565">
        <ele>1036</ele>
        <time>2020-06-28T10:59:15Z</time>
      </trkpt>
      <trkpt lat="44.99739" lon="5.36566">
        <ele>1035</ele>
        <time>2020-06-28T10:59:16Z</time>
      </trkpt>
      <trkpt lat="44.99733" lon="5.36565">
        <ele>1033</ele>
        <time>2020-06-28T10:59:17Z</time>
      </trkpt>
      <trkpt lat="44.99727" lon="5.36563">
        <ele>1032</ele>
        <time>2020-06-28T10:59:18Z</time>
      </trkpt>
      <trkpt lat="44.99721" lon="5.36559">
        <ele>1030</ele>
        <time>2020-06-28T10:59:19Z</time>
      </trkpt>
      <trkpt lat="44.99716" lon="5.36555">
        <ele>1028</ele>
        <time>2020-06-28T10:59:20Z</time>
      </trkpt>
      <trkpt lat="44.99712" lon="5.36549">
        <ele>1027</ele>
        <time>2020-06-28T10:59:21Z</time>
      </trkpt>
      <trkpt lat="44.99708" lon="5.36543">
        <ele>1025</ele>
        <time>2020-06-28T10:59:22Z</time>
      </trkpt>
      <trkpt lat="44.99705" lon="5.36536">
        <ele>1024</ele>
        <time>2020-06-28T10:59:23Z</time>
      </trkpt>
      <trkpt lat="44.99702" lon="5.36529">
        <ele>1024</ele>
        <time>2020-06-28T10:59:24Z</time>
      </trkpt>
      <trkpt lat="44.997" lon="5.36523">
        <ele>1025</ele>
        <time>2020-06-28T10:59:25Z</time>
      </trkpt>
      <trkpt lat="44.99699" lon="5.36516">
        <ele>1026</ele>
        <time>2020-06-28T10:59:26Z</time>
      </trkpt>
      <trkpt lat="44.99698" lon="5.3651">
        <ele>1027</ele>
        <time>2020-06-28T10:59:27Z</time>
      </trkpt>
      <trkpt lat="44.9969" lon="5.36457">
        <ele>1031</ele>
        <time>2020-06-28T10:59:36Z</time>
      </trkpt>
      <trkpt lat="44.99676" lon="5.36396">
        <ele>1033</ele>
        <time>2020-06-28T10:59:50Z</time>
      </trkpt>
      <trkpt lat="44.99644" lon="5.3637">
        <ele>1036</ele>
        <time>2020-06-28T11:00:02Z</time>
      </trkpt>
      <trkpt lat="44.99595" lon="5.36373">
        <ele>1041</ele>
        <time>2020-06-28T11:00:18Z</time>
      </trkpt>
      <trkpt lat="44.99543" lon="5.36381">
        <ele>1043</ele>
        <time>2020-06-28T11:00:35Z</time>
      </trkpt>
      <trkpt lat="44.99502" lon="5.36377">
        <ele>1043</ele>
        <time>2020-06-28T11:00:48Z</time>
      </trkpt>
      <trkpt lat="44.99479" lon="5.36342">
        <ele>1043</ele>
        <time>2020-06-28T11:00:59Z</time>
      </trkpt>
      <trkpt lat="44.99473" lon="5.36339">
        <ele>1043</ele>
        <time>2020-06-28T11:01:02Z</time>
      </trkpt>
      <trkpt lat="44.99472" lon="5.36341">
        <ele>1044</ele>
        <time>2020-06-28T11:01:03Z</time>
      </trkpt>
      <trkpt lat="44.99472" lon="5.36344">
        <ele>1044</ele>
        <time>2020-06-28T11:01:04Z</time>
      </trkpt>
      <trkpt lat="44.99472" lon="5.36346">
        <ele>1044</ele>
        <time>2020-06-28T11:01:05Z</time>
      </trkpt>
      <trkpt lat="44.99473" lon="5.36348">
        <ele>1044</ele>
        <time>2020-06-28T11:01:06Z</time>
      </trkpt>
      <trkpt lat="44.99475" lon="5.36349">
        <ele>1044</ele>
        <time>2020-06-28T11:01:07Z</time>
      </trkpt>
      <trkpt lat="44.99477" lon="5.36347">
        <ele>1043</ele>
        <time>2020-06-28T11:01:08Z</time>
      </trkpt>
      <trkpt lat="44.99477" lon="5.36343">
        <ele>1043</ele>
        <time>2020-06-28T11:01:09Z</time>
      </trkpt>
      <trkpt lat="44.99477" lon="5.36341">
        <ele>1043</ele>
        <time>2020-06-28T11:01:10Z</time>
      </trkpt>
      <trkpt lat="44.99466" lon="5.363">
        <ele>1043</ele>
        <time>2020-06-28T11:01:21Z</time>
      </trkpt>
      <trkpt lat="44.99452" lon="5.36248">
        <ele>1042</ele>
        <time>2020-06-28T11:01:36Z</time>
      </trkpt>
      <trkpt lat="44.99426" lon="5.36197">
        <ele>1044</ele>
        <time>2020-06-28T11:01:51Z</time>
      </trkpt>
      <trkpt lat="44.99409" lon="5.36184">
        <ele>1045</ele>
        <time>2020-06-28T11:01:56Z</time>
      </trkpt>
      <trkpt lat="44.99395" lon="5.36178">
        <ele>1045</ele>
        <time>2020-06-28T11:01:59Z</time>
      </trkpt>
      <trkpt lat="44.9939" lon="5.36178">
        <ele>1045</ele>
        <time>2020-06-28T11:02:00Z</time>
      </trkpt>
      <trkpt lat="44.99385" lon="5.36178">
        <ele>1045</ele>
        <time>2020-06-28T11:02:01Z</time>
      </trkpt>
      <trkpt lat="44.99359" lon="5.36181">
        <ele>1043</ele>
        <time>2020-06-28T11:02:06Z</time>
      </trkpt>
      <trkpt lat="44.99354" lon="5.36182">
        <ele>1044</ele>
        <time>2020-06-28T11:02:07Z</time>
      </trkpt>
      <trkpt lat="44.99279" lon="5.36222">
        <ele>1044</ele>
        <time>2020-06-28T11:02:20Z</time>
      </trkpt>
      <trkpt lat="44.99221" lon="5.36229">
        <ele>1040</ele>
        <time>2020-06-28T11:02:27Z</time>
      </trkpt>
      <trkpt lat="44.9917" lon="5.36212">
        <ele>1031</ele>
        <time>2020-06-28T11:02:32Z</time>
      </trkpt>
      <trkpt lat="44.99127" lon="5.36192">
        <ele>1026</ele>
        <time>2020-06-28T11:02:36Z</time>
      </trkpt>
      <trkpt lat="44.99093" lon="5.36177">
        <ele>1024</ele>
        <time>2020-06-28T11:02:39Z</time>
      </trkpt>
      <trkpt lat="44.99045" lon="5.36151">
        <ele>1017</ele>
        <time>2020-06-28T11:02:43Z</time>
      </trkpt>
      <trkpt lat="44.99012" lon="5.36125">
        <ele>1011</ele>
        <time>2020-06-28T11:02:46Z</time>
      </trkpt>
      <trkpt lat="44.9897" lon="5.36085">
        <ele>1006</ele>
        <time>2020-06-28T11:02:50Z</time>
      </trkpt>
      <trkpt lat="44.98908" lon="5.36023">
        <ele>1005</ele>
        <time>2020-06-28T11:02:56Z</time>
      </trkpt>
      <trkpt lat="44.98809" lon="5.35908">
        <ele>1010</ele>
        <time>2020-06-28T11:03:07Z</time>
      </trkpt>
      <trkpt lat="44.9877" lon="5.35817">
        <ele>1010</ele>
        <time>2020-06-28T11:03:17Z</time>
      </trkpt>
      <trkpt lat="44.98766" lon="5.35802">
        <ele>1010</ele>
        <time>2020-06-28T11:03:19Z</time>
      </trkpt>
      <trkpt lat="44.98765" lon="5.35795">
        <ele>1009</ele>
        <time>2020-06-28T11:03:20Z</time>
      </trkpt>
      <trkpt lat="44.98764" lon="5.35788">
        <ele>1009</ele>
        <time>2020-06-28T11:03:21Z</time>
      </trkpt>
      <trkpt lat="44.98763" lon="5.35767">
        <ele>1010</ele>
        <time>2020-06-28T11:03:24Z</time>
      </trkpt>
      <trkpt lat="44.98763" lon="5.3576">
        <ele>1010</ele>
        <time>2020-06-28T11:03:25Z</time>
      </trkpt>
      <trkpt lat="44.98763" lon="5.35754">
        <ele>1011</ele>
        <time>2020-06-28T11:03:26Z</time>
      </trkpt>
      <trkpt lat="44.98762" lon="5.35716">
        <ele>1012</ele>
        <time>2020-06-28T11:03:32Z</time>
      </trkpt>
      <trkpt lat="44.98763" lon="5.35645">
        <ele>1019</ele>
        <time>2020-06-28T11:03:46Z</time>
      </trkpt>
      <trkpt lat="44.98755" lon="5.3559">
        <ele>1028</ele>
        <time>2020-06-28T11:04:01Z</time>
      </trkpt>
      <trkpt lat="44.9874" lon="5.35562">
        <ele>1035</ele>
        <time>2020-06-28T11:04:14Z</time>
      </trkpt>
      <trkpt lat="44.9872" lon="5.35544">
        <ele>1036</ele>
        <time>2020-06-28T11:04:26Z</time>
      </trkpt>
      <trkpt lat="44.98697" lon="5.35528">
        <ele>1039</ele>
        <time>2020-06-28T11:04:40Z</time>
      </trkpt>
      <trkpt lat="44.98693" lon="5.35525">
        <ele>1039</ele>
        <time>2020-06-28T11:04:43Z</time>
      </trkpt>
      <trkpt lat="44.98691" lon="5.35523">
        <ele>1039</ele>
        <time>2020-06-28T11:04:44Z</time>
      </trkpt>
      <trkpt lat="44.9867" lon="5.3551">
        <ele>1037</ele>
        <time>2020-06-28T11:04:57Z</time>
      </trkpt>
      <trkpt lat="44.98642" lon="5.35495">
        <ele>1035</ele>
        <time>2020-06-28T11:05:15Z</time>
      </trkpt>
      <trkpt lat="44.98626" lon="5.35485">
        <ele>1034</ele>
        <time>2020-06-28T11:05:25Z</time>
      </trkpt>
      <trkpt lat="44.98625" lon="5.35485">
        <ele>1033</ele>
        <time>2020-06-28T11:05:26Z</time>
      </trkpt>
      <trkpt lat="44.98623" lon="5.35484">
        <ele>1033</ele>
        <time>2020-06-28T11:05:27Z</time>
      </trkpt>
      <trkpt lat="44.98608" lon="5.35474">
        <ele>1033</ele>
        <time>2020-06-28T11:05:37Z</time>
      </trkpt>
      <trkpt lat="44.98606" lon="5.35472">
        <ele>1033</ele>
        <time>2020-06-28T11:05:38Z</time>
      </trkpt>
      <trkpt lat="44.98605" lon="5.35471">
        <ele>1033</ele>
        <time>2020-06-28T11:05:39Z</time>
      </trkpt>
      <trkpt lat="44.98604" lon="5.3547">
        <ele>1034</ele>
        <time>2020-06-28T11:05:40Z</time>
      </trkpt>
      <trkpt lat="44.98602" lon="5.35468">
        <ele>1034</ele>
        <time>2020-06-28T11:05:41Z</time>
      </trkpt>
      <trkpt lat="44.986" lon="5.35467">
        <ele>1034</ele>
        <time>2020-06-28T11:05:42Z</time>
      </trkpt>
      <trkpt lat="44.98598" lon="5.35466">
        <ele>1034</ele>
        <time>2020-06-28T11:05:43Z</time>
      </trkpt>
      <trkpt lat="44.98597" lon="5.35465">
        <ele>1035</ele>
        <time>2020-06-28T11:05:44Z</time>
      </trkpt>
      <trkpt lat="44.98595" lon="5.35464">
        <ele>1035</ele>
        <time>2020-06-28T11:05:45Z</time>
      </trkpt>
      <trkpt lat="44.98588" lon="5.35461">
        <ele>1035</ele>
        <time>2020-06-28T11:05:49Z</time>
      </trkpt>
      <trkpt lat="44.98587" lon="5.3546">
        <ele>1035</ele>
        <time>2020-06-28T11:05:50Z</time>
      </trkpt>
      <trkpt lat="44.98584" lon="5.35459">
        <ele>1035</ele>
        <time>2020-06-28T11:05:51Z</time>
      </trkpt>
      <trkpt lat="44.98584" lon="5.35458">
        <ele>1036</ele>
        <time>2020-06-28T11:05:52Z</time>
      </trkpt>
      <trkpt lat="44.98582" lon="5.35457">
        <ele>1036</ele>
        <time>2020-06-28T11:05:53Z</time>
      </trkpt>
      <trkpt lat="44.9858" lon="5.35456">
        <ele>1036</ele>
        <time>2020-06-28T11:05:54Z</time>
      </trkpt>
      <trkpt lat="44.98578" lon="5.35455">
        <ele>1036</ele>
        <time>2020-06-28T11:05:55Z</time>
      </trkpt>
      <trkpt lat="44.98552" lon="5.35439">
        <ele>1040</ele>
        <time>2020-06-28T11:06:12Z</time>
      </trkpt>
      <trkpt lat="44.98532" lon="5.35429">
        <ele>1043</ele>
        <time>2020-06-28T11:06:25Z</time>
      </trkpt>
      <trkpt lat="44.98515" lon="5.35419">
        <ele>1046</ele>
        <time>2020-06-28T11:06:39Z</time>
      </trkpt>
      <trkpt lat="44.98492" lon="5.35407">
        <ele>1047</ele>
        <time>2020-06-28T11:06:54Z</time>
      </trkpt>
      <trkpt lat="44.98473" lon="5.35394">
        <ele>1048</ele>
        <time>2020-06-28T11:07:07Z</time>
      </trkpt>
      <trkpt lat="44.98472" lon="5.35393">
        <ele>1048</ele>
        <time>2020-06-28T11:07:08Z</time>
      </trkpt>
      <trkpt lat="44.9847" lon="5.35393">
        <ele>1048</ele>
        <time>2020-06-28T11:07:09Z</time>
      </trkpt>
      <trkpt lat="44.98469" lon="5.35393">
        <ele>1048</ele>
        <time>2020-06-28T11:07:10Z</time>
      </trkpt>
      <trkpt lat="44.98467" lon="5.35392">
        <ele>1047</ele>
        <time>2020-06-28T11:07:11Z</time>
      </trkpt>
      <trkpt lat="44.98466" lon="5.35391">
        <ele>1048</ele>
        <time>2020-06-28T11:07:12Z</time>
      </trkpt>
      <trkpt lat="44.98464" lon="5.3539">
        <ele>1048</ele>
        <time>2020-06-28T11:07:13Z</time>
      </trkpt>
      <trkpt lat="44.98462" lon="5.35389">
        <ele>1048</ele>
        <time>2020-06-28T11:07:14Z</time>
      </trkpt>
      <trkpt lat="44.98444" lon="5.35377">
        <ele>1048</ele>
        <time>2020-06-28T11:07:26Z</time>
      </trkpt>
      <trkpt lat="44.98426" lon="5.35366">
        <ele>1048</ele>
        <time>2020-06-28T11:07:38Z</time>
      </trkpt>
      <trkpt lat="44.98425" lon="5.35364">
        <ele>1048</ele>
        <time>2020-06-28T11:07:39Z</time>
      </trkpt>
      <trkpt lat="44.98423" lon="5.35363">
        <ele>1048</ele>
        <time>2020-06-28T11:07:40Z</time>
      </trkpt>
      <trkpt lat="44.98421" lon="5.35362">
        <ele>1048</ele>
        <time>2020-06-28T11:07:41Z</time>
      </trkpt>
      <trkpt lat="44.9842" lon="5.35361">
        <ele>1048</ele>
        <time>2020-06-28T11:07:42Z</time>
      </trkpt>
      <trkpt lat="44.98418" lon="5.3536">
        <ele>1048</ele>
        <time>2020-06-28T11:07:43Z</time>
      </trkpt>
      <trkpt lat="44.98417" lon="5.35359">
        <ele>1049</ele>
        <time>2020-06-28T11:07:44Z</time>
      </trkpt>
      <trkpt lat="44.98399" lon="5.3534">
        <ele>1051</ele>
        <time>2020-06-28T11:07:57Z</time>
      </trkpt>
      <trkpt lat="44.98394" lon="5.35331">
        <ele>1052</ele>
        <time>2020-06-28T11:08:03Z</time>
      </trkpt>
      <trkpt lat="44.98393" lon="5.35328">
        <ele>1052</ele>
        <time>2020-06-28T11:08:04Z</time>
      </trkpt>
      <trkpt lat="44.98385" lon="5.35294">
        <ele>1057</ele>
        <time>2020-06-28T11:08:19Z</time>
      </trkpt>
      <trkpt lat="44.98389" lon="5.35263">
        <ele>1062</ele>
        <time>2020-06-28T11:08:34Z</time>
      </trkpt>
      <trkpt lat="44.9839" lon="5.35261">
        <ele>1062</ele>
        <time>2020-06-28T11:08:35Z</time>
      </trkpt>
      <trkpt lat="44.9839" lon="5.35259">
        <ele>1062</ele>
        <time>2020-06-28T11:08:36Z</time>
      </trkpt>
      <trkpt lat="44.98399" lon="5.35229">
        <ele>1068</ele>
        <time>2020-06-28T11:08:50Z</time>
      </trkpt>
      <trkpt lat="44.98413" lon="5.35204">
        <ele>1073</ele>
        <time>2020-06-28T11:09:04Z</time>
      </trkpt>
      <trkpt lat="44.98417" lon="5.35197">
        <ele>1074</ele>
        <time>2020-06-28T11:09:08Z</time>
      </trkpt>
      <trkpt lat="44.98418" lon="5.35195">
        <ele>1074</ele>
        <time>2020-06-28T11:09:09Z</time>
      </trkpt>
      <trkpt lat="44.98419" lon="5.35193">
        <ele>1075</ele>
        <time>2020-06-28T11:09:10Z</time>
      </trkpt>
      <trkpt lat="44.98421" lon="5.35191">
        <ele>1075</ele>
        <time>2020-06-28T11:09:11Z</time>
      </trkpt>
      <trkpt lat="44.98422" lon="5.35189">
        <ele>1075</ele>
        <time>2020-06-28T11:09:12Z</time>
      </trkpt>
      <trkpt lat="44.98423" lon="5.35187">
        <ele>1075</ele>
        <time>2020-06-28T11:09:13Z</time>
      </trkpt>
      <trkpt lat="44.98423" lon="5.35185">
        <ele>1075</ele>
        <time>2020-06-28T11:09:14Z</time>
      </trkpt>
      <trkpt lat="44.98432" lon="5.3517">
        <ele>1076</ele>
        <time>2020-06-28T11:09:22Z</time>
      </trkpt>
      <trkpt lat="44.98433" lon="5.35169">
        <ele>1077</ele>
        <time>2020-06-28T11:09:23Z</time>
      </trkpt>
      <trkpt lat="44.98434" lon="5.35167">
        <ele>1077</ele>
        <time>2020-06-28T11:09:24Z</time>
      </trkpt>
      <trkpt lat="44.98436" lon="5.35165">
        <ele>1077</ele>
        <time>2020-06-28T11:09:25Z</time>
      </trkpt>
      <trkpt lat="44.98436" lon="5.35164">
        <ele>1077</ele>
        <time>2020-06-28T11:09:26Z</time>
      </trkpt>
      <trkpt lat="44.98437" lon="5.35162">
        <ele>1077</ele>
        <time>2020-06-28T11:09:27Z</time>
      </trkpt>
      <trkpt lat="44.98438" lon="5.3516">
        <ele>1077</ele>
        <time>2020-06-28T11:09:28Z</time>
      </trkpt>
      <trkpt lat="44.98439" lon="5.35157">
        <ele>1078</ele>
        <time>2020-06-28T11:09:29Z</time>
      </trkpt>
      <trkpt lat="44.98451" lon="5.35133">
        <ele>1080</ele>
        <time>2020-06-28T11:09:42Z</time>
      </trkpt>
      <trkpt lat="44.98458" lon="5.35102">
        <ele>1073</ele>
        <time>2020-06-28T11:09:56Z</time>
      </trkpt>
      <trkpt lat="44.98453" lon="5.35061">
        <ele>1068</ele>
        <time>2020-06-28T11:10:10Z</time>
      </trkpt>
      <trkpt lat="44.9843" lon="5.35025">
        <ele>1074</ele>
        <time>2020-06-28T11:10:24Z</time>
      </trkpt>
      <trkpt lat="44.98388" lon="5.35008">
        <ele>1075</ele>
        <time>2020-06-28T11:10:38Z</time>
      </trkpt>
      <trkpt lat="44.98347" lon="5.35007">
        <ele>1080</ele>
        <time>2020-06-28T11:10:53Z</time>
      </trkpt>
      <trkpt lat="44.98323" lon="5.35007">
        <ele>1083</ele>
        <time>2020-06-28T11:11:05Z</time>
      </trkpt>
      <trkpt lat="44.98321" lon="5.35006">
        <ele>1083</ele>
        <time>2020-06-28T11:11:06Z</time>
      </trkpt>
      <trkpt lat="44.9832" lon="5.35006">
        <ele>1083</ele>
        <time>2020-06-28T11:11:07Z</time>
      </trkpt>
      <trkpt lat="44.98319" lon="5.35007">
        <ele>1083</ele>
        <time>2020-06-28T11:11:08Z</time>
      </trkpt>
      <trkpt lat="44.98318" lon="5.35008">
        <ele>1084</ele>
        <time>2020-06-28T11:11:09Z</time>
      </trkpt>
      <trkpt lat="44.98316" lon="5.3501">
        <ele>1084</ele>
        <time>2020-06-28T11:11:10Z</time>
      </trkpt>
      <trkpt lat="44.98315" lon="5.3501">
        <ele>1084</ele>
        <time>2020-06-28T11:11:11Z</time>
      </trkpt>
      <trkpt lat="44.98313" lon="5.3501">
        <ele>1084</ele>
        <time>2020-06-28T11:11:12Z</time>
      </trkpt>
      <trkpt lat="44.98312" lon="5.3501">
        <ele>1084</ele>
        <time>2020-06-28T11:11:13Z</time>
      </trkpt>
      <trkpt lat="44.9831" lon="5.35008">
        <ele>1085</ele>
        <time>2020-06-28T11:11:14Z</time>
      </trkpt>
      <trkpt lat="44.98308" lon="5.35007">
        <ele>1085</ele>
        <time>2020-06-28T11:11:15Z</time>
      </trkpt>
      <trkpt lat="44.98307" lon="5.35006">
        <ele>1085</ele>
        <time>2020-06-28T11:11:16Z</time>
      </trkpt>
      <trkpt lat="44.9828" lon="5.34996">
        <ele>1088</ele>
        <time>2020-06-28T11:11:31Z</time>
      </trkpt>
      <trkpt lat="44.98258" lon="5.34984">
        <ele>1089</ele>
        <time>2020-06-28T11:11:44Z</time>
      </trkpt>
      <trkpt lat="44.9825" lon="5.34979">
        <ele>1089</ele>
        <time>2020-06-28T11:11:49Z</time>
      </trkpt>
      <trkpt lat="44.98249" lon="5.34977">
        <ele>1089</ele>
        <time>2020-06-28T11:11:50Z</time>
      </trkpt>
      <trkpt lat="44.98226" lon="5.34957">
        <ele>1091</ele>
        <time>2020-06-28T11:12:04Z</time>
      </trkpt>
      <trkpt lat="44.982" lon="5.34923">
        <ele>1092</ele>
        <time>2020-06-28T11:12:22Z</time>
      </trkpt>
      <trkpt lat="44.98181" lon="5.34892">
        <ele>1091</ele>
        <time>2020-06-28T11:12:36Z</time>
      </trkpt>
      <trkpt lat="44.98167" lon="5.34861">
        <ele>1091</ele>
        <time>2020-06-28T11:12:49Z</time>
      </trkpt>
      <trkpt lat="44.98154" lon="5.34833">
        <ele>1089</ele>
        <time>2020-06-28T11:13:01Z</time>
      </trkpt>
      <trkpt lat="44.98138" lon="5.34797">
        <ele>1089</ele>
        <time>2020-06-28T11:13:14Z</time>
      </trkpt>
      <trkpt lat="44.98123" lon="5.34764">
        <ele>1087</ele>
        <time>2020-06-28T11:13:25Z</time>
      </trkpt>
      <trkpt lat="44.98107" lon="5.34724">
        <ele>1082</ele>
        <time>2020-06-28T11:13:37Z</time>
      </trkpt>
      <trkpt lat="44.9809" lon="5.34667">
        <ele>1086</ele>
        <time>2020-06-28T11:13:51Z</time>
      </trkpt>
      <trkpt lat="44.98072" lon="5.34605">
        <ele>1038</ele>
        <time>2020-06-28T11:14:06Z</time>
      </trkpt>
      <trkpt lat="44.98044" lon="5.34565">
        <ele>1066</ele>
        <time>2020-06-28T11:14:18Z</time>
      </trkpt>
      <trkpt lat="44.98017" lon="5.34542">
        <ele>1077</ele>
        <time>2020-06-28T11:14:26Z</time>
      </trkpt>
      <trkpt lat="44.98013" lon="5.34539">
        <ele>1080</ele>
        <time>2020-06-28T11:14:27Z</time>
      </trkpt>
      <trkpt lat="44.97959" lon="5.34497">
        <ele>1070</ele>
        <time>2020-06-28T11:14:37Z</time>
      </trkpt>
      <trkpt lat="44.97919" lon="5.34443">
        <ele>1016</ele>
        <time>2020-06-28T11:14:44Z</time>
      </trkpt>
      <trkpt lat="44.97914" lon="5.34433">
        <ele>1021</ele>
        <time>2020-06-28T11:14:45Z</time>
      </trkpt>
      <trkpt lat="44.97881" lon="5.34355">
        <ele>1022</ele>
        <time>2020-06-28T11:14:52Z</time>
      </trkpt>
      <trkpt lat="44.97869" lon="5.34335">
        <ele>1034</ele>
        <time>2020-06-28T11:14:54Z</time>
      </trkpt>
      <trkpt lat="44.97862" lon="5.34325">
        <ele>1022</ele>
        <time>2020-06-28T11:14:55Z</time>
      </trkpt>
      <trkpt lat="44.97854" lon="5.34317">
        <ele>1020</ele>
        <time>2020-06-28T11:14:56Z</time>
      </trkpt>
      <trkpt lat="44.97826" lon="5.34295">
        <ele>1059</ele>
        <time>2020-06-28T11:14:59Z</time>
      </trkpt>
      <trkpt lat="44.97784" lon="5.34278">
        <ele>1077</ele>
        <time>2020-06-28T11:15:03Z</time>
      </trkpt>
      <trkpt lat="44.97729" lon="5.34256">
        <ele>1075</ele>
        <time>2020-06-28T11:15:08Z</time>
      </trkpt>
      <trkpt lat="44.97695" lon="5.34234">
        <ele>1073</ele>
        <time>2020-06-28T11:15:11Z</time>
      </trkpt>
      <trkpt lat="44.97639" lon="5.34192">
        <ele>1068</ele>
        <time>2020-06-28T11:15:16Z</time>
      </trkpt>
      <trkpt lat="44.97603" lon="5.34165">
        <ele>1065</ele>
        <time>2020-06-28T11:15:19Z</time>
      </trkpt>
      <trkpt lat="44.97554" lon="5.34129">
        <ele>1059</ele>
        <time>2020-06-28T11:15:23Z</time>
      </trkpt>
      <trkpt lat="44.97499" lon="5.34098">
        <ele>1053</ele>
        <time>2020-06-28T11:15:27Z</time>
      </trkpt>
      <trkpt lat="44.97445" lon="5.34078">
        <ele>1049</ele>
        <time>2020-06-28T11:15:31Z</time>
      </trkpt>
      <trkpt lat="44.97391" lon="5.3406">
        <ele>1045</ele>
        <time>2020-06-28T11:15:35Z</time>
      </trkpt>
      <trkpt lat="44.97336" lon="5.3404">
        <ele>1042</ele>
        <time>2020-06-28T11:15:39Z</time>
      </trkpt>
      <trkpt lat="44.97296" lon="5.34025">
        <ele>1038</ele>
        <time>2020-06-28T11:15:42Z</time>
      </trkpt>
      <trkpt lat="44.97242" lon="5.34007">
        <ele>1035</ele>
        <time>2020-06-28T11:15:46Z</time>
      </trkpt>
      <trkpt lat="44.97188" lon="5.33986">
        <ele>1033</ele>
        <time>2020-06-28T11:15:50Z</time>
      </trkpt>
      <trkpt lat="44.9714" lon="5.3396">
        <ele>1029</ele>
        <time>2020-06-28T11:15:54Z</time>
      </trkpt>
      <trkpt lat="44.97117" lon="5.33946">
        <ele>1028</ele>
        <time>2020-06-28T11:15:56Z</time>
      </trkpt>
      <trkpt lat="44.97094" lon="5.3393">
        <ele>1026</ele>
        <time>2020-06-28T11:15:58Z</time>
      </trkpt>
      <trkpt lat="44.97084" lon="5.3392">
        <ele>1025</ele>
        <time>2020-06-28T11:15:59Z</time>
      </trkpt>
      <trkpt lat="44.97074" lon="5.33908">
        <ele>1024</ele>
        <time>2020-06-28T11:16:00Z</time>
      </trkpt>
      <trkpt lat="44.97067" lon="5.33894">
        <ele>1022</ele>
        <time>2020-06-28T11:16:01Z</time>
      </trkpt>
      <trkpt lat="44.97061" lon="5.33879">
        <ele>1019</ele>
        <time>2020-06-28T11:16:02Z</time>
      </trkpt>
      <trkpt lat="44.97059" lon="5.33863">
        <ele>1016</ele>
        <time>2020-06-28T11:16:03Z</time>
      </trkpt>
      <trkpt lat="44.97059" lon="5.33846">
        <ele>1015</ele>
        <time>2020-06-28T11:16:04Z</time>
      </trkpt>
      <trkpt lat="44.97061" lon="5.33831">
        <ele>1017</ele>
        <time>2020-06-28T11:16:05Z</time>
      </trkpt>
      <trkpt lat="44.97065" lon="5.33816">
        <ele>1019</ele>
        <time>2020-06-28T11:16:06Z</time>
      </trkpt>
      <trkpt lat="44.9707" lon="5.33803">
        <ele>1020</ele>
        <time>2020-06-28T11:16:07Z</time>
      </trkpt>
      <trkpt lat="44.97077" lon="5.33793">
        <ele>1022</ele>
        <time>2020-06-28T11:16:08Z</time>
      </trkpt>
      <trkpt lat="44.97086" lon="5.33787">
        <ele>1022</ele>
        <time>2020-06-28T11:16:09Z</time>
      </trkpt>
      <trkpt lat="44.97096" lon="5.33784">
        <ele>1022</ele>
        <time>2020-06-28T11:16:10Z</time>
      </trkpt>
      <trkpt lat="44.9718" lon="5.33756">
        <ele>1019</ele>
        <time>2020-06-28T11:16:21Z</time>
      </trkpt>
      <trkpt lat="44.97262" lon="5.33725">
        <ele>1015</ele>
        <time>2020-06-28T11:16:36Z</time>
      </trkpt>
      <trkpt lat="44.97282" lon="5.33717">
        <ele>1014</ele>
        <time>2020-06-28T11:16:40Z</time>
      </trkpt>
      <trkpt lat="44.97323" lon="5.33697">
        <ele>1013</ele>
        <time>2020-06-28T11:16:48Z</time>
      </trkpt>
      <trkpt lat="44.97387" lon="5.33643">
        <ele>1019</ele>
        <time>2020-06-28T11:17:02Z</time>
      </trkpt>
      <trkpt lat="44.97418" lon="5.33587">
        <ele>1022</ele>
        <time>2020-06-28T11:17:17Z</time>
      </trkpt>
      <trkpt lat="44.9744" lon="5.33544">
        <ele>1022</ele>
        <time>2020-06-28T11:17:30Z</time>
      </trkpt>
      <trkpt lat="44.97445" lon="5.33498">
        <ele>1022</ele>
        <time>2020-06-28T11:17:39Z</time>
      </trkpt>
      <trkpt lat="44.97439" lon="5.33488">
        <ele>1022</ele>
        <time>2020-06-28T11:17:42Z</time>
      </trkpt>
      <trkpt lat="44.97411" lon="5.33463">
        <ele>1023</ele>
        <time>2020-06-28T11:17:53Z</time>
      </trkpt>
      <trkpt lat="44.974" lon="5.33461">
        <ele>1023</ele>
        <time>2020-06-28T11:17:58Z</time>
      </trkpt>
      <trkpt lat="44.97399" lon="5.33462">
        <ele>1024</ele>
        <time>2020-06-28T11:17:59Z</time>
      </trkpt>
    </trkseg>
  </trk>
</gpx>